<?xml version="1.0" encoding="utf-8"?>
<gpx xmlns:xsi="http://www.w3.org/2001/XMLSchema-instance" xmlns:xsd="http://www.w3.org/2001/XMLSchema" version="1.1" creator="Shapelink.com" xmlns="http://www.topografix.com/GPX/1/1" xmlns:gpxtpx="http://www.garmin.com/xmlschemas/TrackPointExtension/v1">
  <metadata>
    <name>Ciclismo 22.97 km, 2020-03-29</name>
    <desc></desc>
    <author><name>Per Rooth</name></author> 
    <time>2020-03-29T15:53:41Z</time>
  </metadata>
  <trk>
    <name>Ciclismo 22.97 km, 2020-03-29</name>
    <trkseg>
      <trkpt lat="56.873242634749" lon="14.79293451635">
        <ele>175.6</ele>
        <time>2020-03-29T15:53:41Z</time>
      </trkpt>
      <trkpt lat="56.873260655834" lon="14.792981119714">
        <ele>175.8</ele>
        <time>2020-03-29T15:53:43Z</time>
      </trkpt>
      <trkpt lat="56.872781043516" lon="14.793024873232">
        <ele>175.4</ele>
        <time>2020-03-29T15:53:57Z</time>
      </trkpt>
      <trkpt lat="56.872681298906" lon="14.793029064182">
        <ele>175.6</ele>
        <time>2020-03-29T15:53:59Z</time>
      </trkpt>
      <trkpt lat="56.87255188237" lon="14.792909203012">
        <ele>175.6</ele>
        <time>2020-03-29T15:54:02Z</time>
      </trkpt>
      <trkpt lat="56.872180480381" lon="14.792903838596">
        <ele>175.8</ele>
        <time>2020-03-29T15:54:09Z</time>
      </trkpt>
      <trkpt lat="56.872018374435" lon="14.792982879913">
        <ele>175.6</ele>
        <time>2020-03-29T15:54:12Z</time>
      </trkpt>
      <trkpt lat="56.871694916914" lon="14.793098298676">
        <ele>175.6</ele>
        <time>2020-03-29T15:54:18Z</time>
      </trkpt>
      <trkpt lat="56.871507162354" lon="14.793114978657">
        <ele>175.6</ele>
        <time>2020-03-29T15:54:21Z</time>
      </trkpt>
      <trkpt lat="56.870950268918" lon="14.7928967978">
        <ele>174.8</ele>
        <time>2020-03-29T15:54:30Z</time>
      </trkpt>
      <trkpt lat="56.87086628228" lon="14.792837956862">
        <ele>174.6</ele>
        <time>2020-03-29T15:54:31Z</time>
      </trkpt>
      <trkpt lat="56.870461185053" lon="14.792628577">
        <ele>173.4</ele>
        <time>2020-03-29T15:54:37Z</time>
      </trkpt>
      <trkpt lat="56.870192545158" lon="14.792469907633">
        <ele>172.6</ele>
        <time>2020-03-29T15:54:41Z</time>
      </trkpt>
      <trkpt lat="56.870056926016" lon="14.792359350372">
        <ele>172.4</ele>
        <time>2020-03-29T15:54:43Z</time>
      </trkpt>
      <trkpt lat="56.869875793157" lon="14.792186599413">
        <ele>172</ele>
        <time>2020-03-29T15:54:46Z</time>
      </trkpt>
      <trkpt lat="56.869567255418" lon="14.791503977477">
        <ele>171.4</ele>
        <time>2020-03-29T15:54:58Z</time>
      </trkpt>
      <trkpt lat="56.869434569941" lon="14.79130926594">
        <ele>170</ele>
        <time>2020-03-29T15:55:01Z</time>
      </trkpt>
      <trkpt lat="56.86919912237" lon="14.79104020695">
        <ele>168.6</ele>
        <time>2020-03-29T15:55:05Z</time>
      </trkpt>
      <trkpt lat="56.868986557386" lon="14.790701326733">
        <ele>167.6</ele>
        <time>2020-03-29T15:55:09Z</time>
      </trkpt>
      <trkpt lat="56.868918412539" lon="14.79054651304">
        <ele>167.6</ele>
        <time>2020-03-29T15:55:11Z</time>
      </trkpt>
      <trkpt lat="56.868850016235" lon="14.790355573358">
        <ele>168.8</ele>
        <time>2020-03-29T15:55:14Z</time>
      </trkpt>
      <trkpt lat="56.868827385105" lon="14.790300168999">
        <ele>170</ele>
        <time>2020-03-29T15:55:15Z</time>
      </trkpt>
      <trkpt lat="56.868782374302" lon="14.790204112425">
        <ele>171.4</ele>
        <time>2020-03-29T15:55:17Z</time>
      </trkpt>
      <trkpt lat="56.868720432061" lon="14.790091962603">
        <ele>172.8</ele>
        <time>2020-03-29T15:55:20Z</time>
      </trkpt>
      <trkpt lat="56.868671397946" lon="14.790039911004">
        <ele>174.2</ele>
        <time>2020-03-29T15:55:22Z</time>
      </trkpt>
      <trkpt lat="56.868619765442" lon="14.790008227422">
        <ele>175.4</ele>
        <time>2020-03-29T15:55:24Z</time>
      </trkpt>
      <trkpt lat="56.868529827655" lon="14.789924827517">
        <ele>176.8</ele>
        <time>2020-03-29T15:55:27Z</time>
      </trkpt>
      <trkpt lat="56.868494623675" lon="14.789873614108">
        <ele>177</ele>
        <time>2020-03-29T15:55:28Z</time>
      </trkpt>
      <trkpt lat="56.868293793351" lon="14.789646380799">
        <ele>177.6</ele>
        <time>2020-03-29T15:55:36Z</time>
      </trkpt>
      <trkpt lat="56.868273425334" lon="14.789658618373">
        <ele>177.8</ele>
        <time>2020-03-29T15:55:37Z</time>
      </trkpt>
      <trkpt lat="56.868226905789" lon="14.789676555639">
        <ele>178</ele>
        <time>2020-03-29T15:55:39Z</time>
      </trkpt>
      <trkpt lat="56.867824574589" lon="14.789747466513">
        <ele>176.6</ele>
        <time>2020-03-29T15:55:48Z</time>
      </trkpt>
      <trkpt lat="56.867697337347" lon="14.789675130716">
        <ele>175.6</ele>
        <time>2020-03-29T15:55:50Z</time>
      </trkpt>
      <trkpt lat="56.867609243578" lon="14.789458710058">
        <ele>174.2</ele>
        <time>2020-03-29T15:55:52Z</time>
      </trkpt>
      <trkpt lat="56.867590887217" lon="14.789353601032">
        <ele>173.4</ele>
        <time>2020-03-29T15:55:53Z</time>
      </trkpt>
      <trkpt lat="56.867569513372" lon="14.78926072958">
        <ele>172.6</ele>
        <time>2020-03-29T15:55:54Z</time>
      </trkpt>
      <trkpt lat="56.867503799276" lon="14.789166936119">
        <ele>171</ele>
        <time>2020-03-29T15:55:56Z</time>
      </trkpt>
      <trkpt lat="56.867316799087" lon="14.788887651211">
        <ele>170.8</ele>
        <time>2020-03-29T15:56:01Z</time>
      </trkpt>
      <trkpt lat="56.867214707545" lon="14.788911539626">
        <ele>171</ele>
        <time>2020-03-29T15:56:05Z</time>
      </trkpt>
      <trkpt lat="56.86705503235" lon="14.789049170424">
        <ele>171</ele>
        <time>2020-03-29T15:56:08Z</time>
      </trkpt>
      <trkpt lat="56.866937518112" lon="14.789119578384">
        <ele>171.4</ele>
        <time>2020-03-29T15:56:10Z</time>
      </trkpt>
      <trkpt lat="56.866785638084" lon="14.789248575825">
        <ele>171.8</ele>
        <time>2020-03-29T15:56:13Z</time>
      </trkpt>
      <trkpt lat="56.8666736559" lon="14.789287803117">
        <ele>171.8</ele>
        <time>2020-03-29T15:56:15Z</time>
      </trkpt>
      <trkpt lat="56.866328992172" lon="14.789193255285">
        <ele>172.2</ele>
        <time>2020-03-29T15:56:20Z</time>
      </trkpt>
      <trkpt lat="56.866274761279" lon="14.789161404065">
        <ele>172.4</ele>
        <time>2020-03-29T15:56:21Z</time>
      </trkpt>
      <trkpt lat="56.866046773599" lon="14.789129301388">
        <ele>172.4</ele>
        <time>2020-03-29T15:56:25Z</time>
      </trkpt>
      <trkpt lat="56.865988100299" lon="14.78911320814">
        <ele>172.4</ele>
        <time>2020-03-29T15:56:26Z</time>
      </trkpt>
      <trkpt lat="56.865826497267" lon="14.78896065756">
        <ele>172.2</ele>
        <time>2020-03-29T15:56:29Z</time>
      </trkpt>
      <trkpt lat="56.865562635055" lon="14.788749685137">
        <ele>171</ele>
        <time>2020-03-29T15:56:34Z</time>
      </trkpt>
      <trkpt lat="56.865399523281" lon="14.788615993832">
        <ele>170</ele>
        <time>2020-03-29T15:56:37Z</time>
      </trkpt>
      <trkpt lat="56.865336659031" lon="14.788473920627">
        <ele>169.8</ele>
        <time>2020-03-29T15:56:39Z</time>
      </trkpt>
      <trkpt lat="56.86535602122" lon="14.788229001509">
        <ele>169.6</ele>
        <time>2020-03-29T15:56:42Z</time>
      </trkpt>
      <trkpt lat="56.865389716458" lon="14.788060609138">
        <ele>169.6</ele>
        <time>2020-03-29T15:56:44Z</time>
      </trkpt>
      <trkpt lat="56.865452329251" lon="14.787762716412">
        <ele>169</ele>
        <time>2020-03-29T15:56:47Z</time>
      </trkpt>
      <trkpt lat="56.865493232923" lon="14.787521066235">
        <ele>168.4</ele>
        <time>2020-03-29T15:56:49Z</time>
      </trkpt>
      <trkpt lat="56.865513265664" lon="14.787402881445">
        <ele>168</ele>
        <time>2020-03-29T15:56:50Z</time>
      </trkpt>
      <trkpt lat="56.865544949246" lon="14.787289893433">
        <ele>167.6</ele>
        <time>2020-03-29T15:56:51Z</time>
      </trkpt>
      <trkpt lat="56.86561083098" lon="14.78708143558">
        <ele>166.6</ele>
        <time>2020-03-29T15:56:53Z</time>
      </trkpt>
      <trkpt lat="56.865659781276" lon="14.786887981328">
        <ele>166.4</ele>
        <time>2020-03-29T15:56:55Z</time>
      </trkpt>
      <trkpt lat="56.865696242541" lon="14.786717325844">
        <ele>166.2</ele>
        <time>2020-03-29T15:56:57Z</time>
      </trkpt>
      <trkpt lat="56.865731195064" lon="14.786274426248">
        <ele>166.2</ele>
        <time>2020-03-29T15:57:01Z</time>
      </trkpt>
      <trkpt lat="56.865750557253" lon="14.785875699265">
        <ele>166.4</ele>
        <time>2020-03-29T15:57:04Z</time>
      </trkpt>
      <trkpt lat="56.865781067369" lon="14.785691381284">
        <ele>166.4</ele>
        <time>2020-03-29T15:57:06Z</time>
      </trkpt>
      <trkpt lat="56.86581367296" lon="14.785502872353">
        <ele>166.2</ele>
        <time>2020-03-29T15:57:09Z</time>
      </trkpt>
      <trkpt lat="56.865757430411" lon="14.784930472402">
        <ele>166.2</ele>
        <time>2020-03-29T15:57:13Z</time>
      </trkpt>
      <trkpt lat="56.865727842304" lon="14.784689408958">
        <ele>166.2</ele>
        <time>2020-03-29T15:57:15Z</time>
      </trkpt>
      <trkpt lat="56.865614770473" lon="14.784236534901">
        <ele>166.4</ele>
        <time>2020-03-29T15:57:19Z</time>
      </trkpt>
      <trkpt lat="56.865566574548" lon="14.7840455114">
        <ele>166.4</ele>
        <time>2020-03-29T15:57:21Z</time>
      </trkpt>
      <trkpt lat="56.865246050692" lon="14.783202878993">
        <ele>167.4</ele>
        <time>2020-03-29T15:57:30Z</time>
      </trkpt>
      <trkpt lat="56.865216965499" lon="14.783104978401">
        <ele>167.8</ele>
        <time>2020-03-29T15:57:31Z</time>
      </trkpt>
      <trkpt lat="56.864931980899" lon="14.782527633129">
        <ele>168.6</ele>
        <time>2020-03-29T15:57:38Z</time>
      </trkpt>
      <trkpt lat="56.86475839175" lon="14.782088086293">
        <ele>168.2</ele>
        <time>2020-03-29T15:57:42Z</time>
      </trkpt>
      <trkpt lat="56.864432922573" lon="14.781253584329">
        <ele>167.8</ele>
        <time>2020-03-29T15:57:50Z</time>
      </trkpt>
      <trkpt lat="56.864401406629" lon="14.781154426452">
        <ele>167.8</ele>
        <time>2020-03-29T15:57:51Z</time>
      </trkpt>
      <trkpt lat="56.864327813547" lon="14.780948818445">
        <ele>167.8</ele>
        <time>2020-03-29T15:57:53Z</time>
      </trkpt>
      <trkpt lat="56.864125809757" lon="14.780334173718">
        <ele>167.6</ele>
        <time>2020-03-29T15:57:59Z</time>
      </trkpt>
      <trkpt lat="56.864027238613" lon="14.780215234557">
        <ele>167.2</ele>
        <time>2020-03-29T15:58:02Z</time>
      </trkpt>
      <trkpt lat="56.863941910871" lon="14.780223281181">
        <ele>167</ele>
        <time>2020-03-29T15:58:04Z</time>
      </trkpt>
      <trkpt lat="56.863834119637" lon="14.780117417784">
        <ele>166.8</ele>
        <time>2020-03-29T15:58:06Z</time>
      </trkpt>
      <trkpt lat="56.863783157685" lon="14.780044998168">
        <ele>166.6</ele>
        <time>2020-03-29T15:58:07Z</time>
      </trkpt>
      <trkpt lat="56.863650053113" lon="14.779844670758">
        <ele>166.8</ele>
        <time>2020-03-29T15:58:10Z</time>
      </trkpt>
      <trkpt lat="56.863466070408" lon="14.779631435222">
        <ele>168</ele>
        <time>2020-03-29T15:58:14Z</time>
      </trkpt>
      <trkpt lat="56.863389040747" lon="14.779522554341">
        <ele>169.2</ele>
        <time>2020-03-29T15:58:16Z</time>
      </trkpt>
      <trkpt lat="56.863342856478" lon="14.779469580733">
        <ele>169.6</ele>
        <time>2020-03-29T15:58:17Z</time>
      </trkpt>
      <trkpt lat="56.863263982799" lon="14.779365226078">
        <ele>170.2</ele>
        <time>2020-03-29T15:58:19Z</time>
      </trkpt>
      <trkpt lat="56.863210673915" lon="14.779323400397">
        <ele>170.2</ele>
        <time>2020-03-29T15:58:20Z</time>
      </trkpt>
      <trkpt lat="56.86315074333" lon="14.779277719042">
        <ele>170</ele>
        <time>2020-03-29T15:58:21Z</time>
      </trkpt>
      <trkpt lat="56.862982099502" lon="14.779068506818">
        <ele>169.4</ele>
        <time>2020-03-29T15:58:24Z</time>
      </trkpt>
      <trkpt lat="56.86291353556" lon="14.778888463606">
        <ele>169.2</ele>
        <time>2020-03-29T15:58:26Z</time>
      </trkpt>
      <trkpt lat="56.862851593319" lon="14.778690483128">
        <ele>169.4</ele>
        <time>2020-03-29T15:58:28Z</time>
      </trkpt>
      <trkpt lat="56.862791746553" lon="14.778369875453">
        <ele>170</ele>
        <time>2020-03-29T15:58:31Z</time>
      </trkpt>
      <trkpt lat="56.862645482398" lon="14.777932507911">
        <ele>170.4</ele>
        <time>2020-03-29T15:58:36Z</time>
      </trkpt>
      <trkpt lat="56.862449681214" lon="14.7775914484">
        <ele>169.8</ele>
        <time>2020-03-29T15:58:40Z</time>
      </trkpt>
      <trkpt lat="56.8623485955" lon="14.777406124591">
        <ele>169.4</ele>
        <time>2020-03-29T15:58:42Z</time>
      </trkpt>
      <trkpt lat="56.86227734935" lon="14.777250640346">
        <ele>169.2</ele>
        <time>2020-03-29T15:58:44Z</time>
      </trkpt>
      <trkpt lat="56.862140892018" lon="14.776864067118">
        <ele>169.2</ele>
        <time>2020-03-29T15:58:49Z</time>
      </trkpt>
      <trkpt lat="56.862094875387" lon="14.776628451909">
        <ele>169.6</ele>
        <time>2020-03-29T15:58:51Z</time>
      </trkpt>
      <trkpt lat="56.862024383608" lon="14.776097542363">
        <ele>170.4</ele>
        <time>2020-03-29T15:58:56Z</time>
      </trkpt>
      <trkpt lat="56.862003177401" lon="14.775919762264">
        <ele>170.8</ele>
        <time>2020-03-29T15:58:58Z</time>
      </trkpt>
      <trkpt lat="56.861953388915" lon="14.775763607467">
        <ele>171.2</ele>
        <time>2020-03-29T15:59:00Z</time>
      </trkpt>
      <trkpt lat="56.861924555179" lon="14.775691020213">
        <ele>171.4</ele>
        <time>2020-03-29T15:59:01Z</time>
      </trkpt>
      <trkpt lat="56.861890021751" lon="14.775632011637">
        <ele>171.6</ele>
        <time>2020-03-29T15:59:02Z</time>
      </trkpt>
      <trkpt lat="56.861711235824" lon="14.775343087544">
        <ele>171.2</ele>
        <time>2020-03-29T15:59:06Z</time>
      </trkpt>
      <trkpt lat="56.861660944424" lon="14.775162709056">
        <ele>170.4</ele>
        <time>2020-03-29T15:59:08Z</time>
      </trkpt>
      <trkpt lat="56.861576706329" lon="14.774852997851">
        <ele>169.4</ele>
        <time>2020-03-29T15:59:11Z</time>
      </trkpt>
      <trkpt lat="56.861559774891" lon="14.774758450019">
        <ele>169.2</ele>
        <time>2020-03-29T15:59:12Z</time>
      </trkpt>
      <trkpt lat="56.86148190704" lon="14.774514955824">
        <ele>168.6</ele>
        <time>2020-03-29T15:59:15Z</time>
      </trkpt>
      <trkpt lat="56.861361626775" lon="14.774385874564">
        <ele>168.4</ele>
        <time>2020-03-29T15:59:17Z</time>
      </trkpt>
      <trkpt lat="56.861211255489" lon="14.774252602354">
        <ele>168.4</ele>
        <time>2020-03-29T15:59:19Z</time>
      </trkpt>
      <trkpt lat="56.861099189486" lon="14.77414816388">
        <ele>168.4</ele>
        <time>2020-03-29T15:59:21Z</time>
      </trkpt>
      <trkpt lat="56.860928534002" lon="14.774098543032">
        <ele>168</ele>
        <time>2020-03-29T15:59:25Z</time>
      </trkpt>
      <trkpt lat="56.860841362242" lon="14.774075828083">
        <ele>168</ele>
        <time>2020-03-29T15:59:26Z</time>
      </trkpt>
      <trkpt lat="56.860624019575" lon="14.774027045425">
        <ele>168</ele>
        <time>2020-03-29T15:59:29Z</time>
      </trkpt>
      <trkpt lat="56.860521425119" lon="14.773909950282">
        <ele>168.6</ele>
        <time>2020-03-29T15:59:31Z</time>
      </trkpt>
      <trkpt lat="56.860453028815" lon="14.773718507686">
        <ele>168.8</ele>
        <time>2020-03-29T15:59:33Z</time>
      </trkpt>
      <trkpt lat="56.860390667479" lon="14.773527987099">
        <ele>169</ele>
        <time>2020-03-29T15:59:35Z</time>
      </trkpt>
      <trkpt lat="56.860350518178" lon="14.773436037656">
        <ele>169</ele>
        <time>2020-03-29T15:59:36Z</time>
      </trkpt>
      <trkpt lat="56.860277847105" lon="14.773233614771">
        <ele>169.2</ele>
        <time>2020-03-29T15:59:38Z</time>
      </trkpt>
      <trkpt lat="56.860214144665" lon="14.772748721856">
        <ele>170.4</ele>
        <time>2020-03-29T15:59:43Z</time>
      </trkpt>
      <trkpt lat="56.860179778875" lon="14.77244077085">
        <ele>170.6</ele>
        <time>2020-03-29T15:59:46Z</time>
      </trkpt>
      <trkpt lat="56.860149352578" lon="14.772120749908">
        <ele>170</ele>
        <time>2020-03-29T15:59:49Z</time>
      </trkpt>
      <trkpt lat="56.860152286243" lon="14.771852110013">
        <ele>169.6</ele>
        <time>2020-03-29T15:59:51Z</time>
      </trkpt>
      <trkpt lat="56.860179527418" lon="14.771746162797">
        <ele>169.4</ele>
        <time>2020-03-29T15:59:52Z</time>
      </trkpt>
      <trkpt lat="56.86024976774" lon="14.771359673388">
        <ele>168.2</ele>
        <time>2020-03-29T15:59:55Z</time>
      </trkpt>
      <trkpt lat="56.860227723343" lon="14.771135038468">
        <ele>167.6</ele>
        <time>2020-03-29T15:59:57Z</time>
      </trkpt>
      <trkpt lat="56.860197548503" lon="14.771044262491">
        <ele>167.2</ele>
        <time>2020-03-29T15:59:58Z</time>
      </trkpt>
      <trkpt lat="56.860159578496" lon="14.770983661354">
        <ele>167</ele>
        <time>2020-03-29T15:59:59Z</time>
      </trkpt>
      <trkpt lat="56.859882305244" lon="14.770695575451">
        <ele>166</ele>
        <time>2020-03-29T16:00:03Z</time>
      </trkpt>
      <trkpt lat="56.859758336943" lon="14.770513855859">
        <ele>165.4</ele>
        <time>2020-03-29T16:00:05Z</time>
      </trkpt>
      <trkpt lat="56.859724725524" lon="14.770394413784">
        <ele>165</ele>
        <time>2020-03-29T16:00:06Z</time>
      </trkpt>
      <trkpt lat="56.859701842937" lon="14.770250999475">
        <ele>164.6</ele>
        <time>2020-03-29T16:00:07Z</time>
      </trkpt>
      <trkpt lat="56.859734448528" lon="14.770010774221">
        <ele>164</ele>
        <time>2020-03-29T16:00:09Z</time>
      </trkpt>
      <trkpt lat="56.859733191243" lon="14.769887560291">
        <ele>163.8</ele>
        <time>2020-03-29T16:00:10Z</time>
      </trkpt>
      <trkpt lat="56.859722881506" lon="14.769753952805">
        <ele>163.6</ele>
        <time>2020-03-29T16:00:11Z</time>
      </trkpt>
      <trkpt lat="56.859679127988" lon="14.769386322671">
        <ele>163.8</ele>
        <time>2020-03-29T16:00:14Z</time>
      </trkpt>
      <trkpt lat="56.859670326993" lon="14.769279369627">
        <ele>163.8</ele>
        <time>2020-03-29T16:00:15Z</time>
      </trkpt>
      <trkpt lat="56.859691197924" lon="14.769061104951">
        <ele>164</ele>
        <time>2020-03-29T16:00:17Z</time>
      </trkpt>
      <trkpt lat="56.859710308656" lon="14.76884996489">
        <ele>164</ele>
        <time>2020-03-29T16:00:19Z</time>
      </trkpt>
      <trkpt lat="56.859682983662" lon="14.768615606966">
        <ele>164</ele>
        <time>2020-03-29T16:00:21Z</time>
      </trkpt>
      <trkpt lat="56.859619784136" lon="14.768425086379">
        <ele>164</ele>
        <time>2020-03-29T16:00:23Z</time>
      </trkpt>
      <trkpt lat="56.859282747937" lon="14.767633918838">
        <ele>164.2</ele>
        <time>2020-03-29T16:00:29Z</time>
      </trkpt>
      <trkpt lat="56.85889609089" lon="14.766846523152">
        <ele>164</ele>
        <time>2020-03-29T16:00:37Z</time>
      </trkpt>
      <trkpt lat="56.858801543058" lon="14.766677627867">
        <ele>164</ele>
        <time>2020-03-29T16:00:39Z</time>
      </trkpt>
      <trkpt lat="56.858544554004" lon="14.766315865063">
        <ele>164.4</ele>
        <time>2020-03-29T16:00:44Z</time>
      </trkpt>
      <trkpt lat="56.858429051422" lon="14.766264400197">
        <ele>164.6</ele>
        <time>2020-03-29T16:00:46Z</time>
      </trkpt>
      <trkpt lat="56.858322433654" lon="14.766349811758">
        <ele>164.8</ele>
        <time>2020-03-29T16:00:48Z</time>
      </trkpt>
      <trkpt lat="56.858263173621" lon="14.766440503916">
        <ele>164.8</ele>
        <time>2020-03-29T16:00:50Z</time>
      </trkpt>
      <trkpt lat="56.858187736521" lon="14.766546954046">
        <ele>165</ele>
        <time>2020-03-29T16:00:53Z</time>
      </trkpt>
      <trkpt lat="56.858011046069" lon="14.766578050895">
        <ele>164.8</ele>
        <time>2020-03-29T16:00:58Z</time>
      </trkpt>
      <trkpt lat="56.857871990348" lon="14.766516360111">
        <ele>164.4</ele>
        <time>2020-03-29T16:01:00Z</time>
      </trkpt>
      <trkpt lat="56.857693958792" lon="14.766392224172">
        <ele>163.8</ele>
        <time>2020-03-29T16:01:04Z</time>
      </trkpt>
      <trkpt lat="56.85750888644" lon="14.76639658276">
        <ele>164</ele>
        <time>2020-03-29T16:01:08Z</time>
      </trkpt>
      <trkpt lat="56.857331106341" lon="14.766424159211">
        <ele>164</ele>
        <time>2020-03-29T16:01:11Z</time>
      </trkpt>
      <trkpt lat="56.857170509137" lon="14.766438743717">
        <ele>163.8</ele>
        <time>2020-03-29T16:01:14Z</time>
      </trkpt>
      <trkpt lat="56.857115440054" lon="14.766513007351">
        <ele>163.8</ele>
        <time>2020-03-29T16:01:16Z</time>
      </trkpt>
      <trkpt lat="56.856993483409" lon="14.766637730023">
        <ele>163.8</ele>
        <time>2020-03-29T16:01:18Z</time>
      </trkpt>
      <trkpt lat="56.856852332213" lon="14.766754238433">
        <ele>163.8</ele>
        <time>2020-03-29T16:01:20Z</time>
      </trkpt>
      <trkpt lat="56.856777230389" lon="14.766852893396">
        <ele>163.6</ele>
        <time>2020-03-29T16:01:22Z</time>
      </trkpt>
      <trkpt lat="56.85645863437" lon="14.766974514765">
        <ele>163.6</ele>
        <time>2020-03-29T16:01:26Z</time>
      </trkpt>
      <trkpt lat="56.85612671113" lon="14.767080461981">
        <ele>165.2</ele>
        <time>2020-03-29T16:01:31Z</time>
      </trkpt>
      <trkpt lat="56.856029984004" lon="14.76708641313">
        <ele>165.4</ele>
        <time>2020-03-29T16:01:33Z</time>
      </trkpt>
      <trkpt lat="56.85559026953" lon="14.76707132571">
        <ele>165.4</ele>
        <time>2020-03-29T16:01:39Z</time>
      </trkpt>
      <trkpt lat="56.855028766049" lon="14.766923217537">
        <ele>165.6</ele>
        <time>2020-03-29T16:01:48Z</time>
      </trkpt>
      <trkpt lat="56.854924830489" lon="14.766940484251">
        <ele>165.6</ele>
        <time>2020-03-29T16:01:50Z</time>
      </trkpt>
      <trkpt lat="56.854689131461" lon="14.766877955277">
        <ele>165.8</ele>
        <time>2020-03-29T16:01:54Z</time>
      </trkpt>
      <trkpt lat="56.854152689861" lon="14.766594060324">
        <ele>165.8</ele>
        <time>2020-03-29T16:02:02Z</time>
      </trkpt>
      <trkpt lat="56.854083790643" lon="14.766546786408">
        <ele>165.8</ele>
        <time>2020-03-29T16:02:03Z</time>
      </trkpt>
      <trkpt lat="56.853820096069" lon="14.766360456771">
        <ele>165.4</ele>
        <time>2020-03-29T16:02:07Z</time>
      </trkpt>
      <trkpt lat="56.853496135634" lon="14.766112184893">
        <ele>164.4</ele>
        <time>2020-03-29T16:02:12Z</time>
      </trkpt>
      <trkpt lat="56.853384572545" lon="14.766059462742">
        <ele>164.4</ele>
        <time>2020-03-29T16:02:14Z</time>
      </trkpt>
      <trkpt lat="56.85300696795" lon="14.765888555801">
        <ele>164.2</ele>
        <time>2020-03-29T16:02:20Z</time>
      </trkpt>
      <trkpt lat="56.85291141429" lon="14.765758133437">
        <ele>164.2</ele>
        <time>2020-03-29T16:02:22Z</time>
      </trkpt>
      <trkpt lat="56.852873444283" lon="14.765537018915">
        <ele>164.4</ele>
        <time>2020-03-29T16:02:24Z</time>
      </trkpt>
      <trkpt lat="56.852916862525" lon="14.764527586698">
        <ele>166</ele>
        <time>2020-03-29T16:02:34Z</time>
      </trkpt>
      <trkpt lat="56.852918538905" lon="14.764452065779">
        <ele>166.2</ele>
        <time>2020-03-29T16:02:35Z</time>
      </trkpt>
      <trkpt lat="56.852903200028" lon="14.764212427258">
        <ele>167</ele>
        <time>2020-03-29T16:02:38Z</time>
      </trkpt>
      <trkpt lat="56.852894566671" lon="14.764115783951">
        <ele>167.2</ele>
        <time>2020-03-29T16:02:39Z</time>
      </trkpt>
      <trkpt lat="56.852885262762" lon="14.763134179642">
        <ele>167</ele>
        <time>2020-03-29T16:02:48Z</time>
      </trkpt>
      <trkpt lat="56.852904038218" lon="14.762885572488">
        <ele>166</ele>
        <time>2020-03-29T16:02:50Z</time>
      </trkpt>
      <trkpt lat="56.852940331845" lon="14.762177301938">
        <ele>165.2</ele>
        <time>2020-03-29T16:02:56Z</time>
      </trkpt>
      <trkpt lat="56.852898589983" lon="14.761951493552">
        <ele>165.2</ele>
        <time>2020-03-29T16:02:58Z</time>
      </trkpt>
      <trkpt lat="56.852857183397" lon="14.761752339608">
        <ele>165.6</ele>
        <time>2020-03-29T16:03:00Z</time>
      </trkpt>
      <trkpt lat="56.852847376574" lon="14.761552850388">
        <ele>165.8</ele>
        <time>2020-03-29T16:03:02Z</time>
      </trkpt>
      <trkpt lat="56.852868582781" lon="14.761252023997">
        <ele>166</ele>
        <time>2020-03-29T16:03:05Z</time>
      </trkpt>
      <trkpt lat="56.852952317962" lon="14.760450714357">
        <ele>165.6</ele>
        <time>2020-03-29T16:03:13Z</time>
      </trkpt>
      <trkpt lat="56.852991796711" lon="14.760290787705">
        <ele>165.6</ele>
        <time>2020-03-29T16:03:15Z</time>
      </trkpt>
      <trkpt lat="56.853093133882" lon="14.760084928241">
        <ele>165.4</ele>
        <time>2020-03-29T16:03:18Z</time>
      </trkpt>
      <trkpt lat="56.853230429404" lon="14.759878398225">
        <ele>165.4</ele>
        <time>2020-03-29T16:03:21Z</time>
      </trkpt>
      <trkpt lat="56.853298071337" lon="14.759719058306">
        <ele>165.2</ele>
        <time>2020-03-29T16:03:23Z</time>
      </trkpt>
      <trkpt lat="56.853361103225" lon="14.759561813862">
        <ele>165.2</ele>
        <time>2020-03-29T16:03:25Z</time>
      </trkpt>
      <trkpt lat="56.853412568091" lon="14.759407000169">
        <ele>165.4</ele>
        <time>2020-03-29T16:03:27Z</time>
      </trkpt>
      <trkpt lat="56.853453136487" lon="14.759262328575">
        <ele>165.6</ele>
        <time>2020-03-29T16:03:30Z</time>
      </trkpt>
      <trkpt lat="56.853463278586" lon="14.759224107111">
        <ele>165.6</ele>
        <time>2020-03-29T16:03:31Z</time>
      </trkpt>
      <trkpt lat="56.853517341841" lon="14.758682301095">
        <ele>165.4</ele>
        <time>2020-03-29T16:03:39Z</time>
      </trkpt>
      <trkpt lat="56.853513402348" lon="14.758476609269">
        <ele>166.2</ele>
        <time>2020-03-29T16:03:45Z</time>
      </trkpt>
      <trkpt lat="56.853776929284" lon="14.75807167968">
        <ele>166.2</ele>
        <time>2020-03-29T16:03:56Z</time>
      </trkpt>
      <trkpt lat="56.853908776571" lon="14.757876884324">
        <ele>166.4</ele>
        <time>2020-03-29T16:03:59Z</time>
      </trkpt>
      <trkpt lat="56.853975496495" lon="14.75772550721">
        <ele>166.4</ele>
        <time>2020-03-29T16:04:01Z</time>
      </trkpt>
      <trkpt lat="56.854061662427" lon="14.75727623737">
        <ele>166.4</ele>
        <time>2020-03-29T16:04:06Z</time>
      </trkpt>
      <trkpt lat="56.85415445006" lon="14.757163668453">
        <ele>166.6</ele>
        <time>2020-03-29T16:04:09Z</time>
      </trkpt>
      <trkpt lat="56.854160736485" lon="14.757185126117">
        <ele>166.8</ele>
        <time>2020-03-29T16:04:11Z</time>
      </trkpt>
      <trkpt lat="56.854250087539" lon="14.757265257081">
        <ele>166.6</ele>
        <time>2020-03-29T16:04:14Z</time>
      </trkpt>
      <trkpt lat="56.854221337622" lon="14.757309513513">
        <ele>166.8</ele>
        <time>2020-03-29T16:04:17Z</time>
      </trkpt>
      <trkpt lat="56.854184038167" lon="14.757469188708">
        <ele>166.4</ele>
        <time>2020-03-29T16:04:21Z</time>
      </trkpt>
      <trkpt lat="56.853925205095" lon="14.758061202305">
        <ele>165.2</ele>
        <time>2020-03-29T16:04:32Z</time>
      </trkpt>
      <trkpt lat="56.853897712463" lon="14.75806665054">
        <ele>165</ele>
        <time>2020-03-29T16:04:33Z</time>
      </trkpt>
      <trkpt lat="56.853955882849" lon="14.758150972454">
        <ele>165.2</ele>
        <time>2020-03-29T16:04:36Z</time>
      </trkpt>
      <trkpt lat="56.854061075694" lon="14.758190451203">
        <ele>165.6</ele>
        <time>2020-03-29T16:04:39Z</time>
      </trkpt>
      <trkpt lat="56.854236760318" lon="14.758147368237">
        <ele>165.4</ele>
        <time>2020-03-29T16:04:43Z</time>
      </trkpt>
      <trkpt lat="56.85432208806" lon="14.758092047697">
        <ele>165.2</ele>
        <time>2020-03-29T16:04:45Z</time>
      </trkpt>
      <trkpt lat="56.854444715257" lon="14.757863138008">
        <ele>165.4</ele>
        <time>2020-03-29T16:04:49Z</time>
      </trkpt>
      <trkpt lat="56.854566923359" lon="14.757414873996">
        <ele>165</ele>
        <time>2020-03-29T16:04:56Z</time>
      </trkpt>
      <trkpt lat="56.854739003766" lon="14.75701639847">
        <ele>165.8</ele>
        <time>2020-03-29T16:05:04Z</time>
      </trkpt>
      <trkpt lat="56.854926590688" lon="14.75679343993">
        <ele>166</ele>
        <time>2020-03-29T16:05:08Z</time>
      </trkpt>
      <trkpt lat="56.854922651195" lon="14.756681038651">
        <ele>166.2</ele>
        <time>2020-03-29T16:05:10Z</time>
      </trkpt>
      <trkpt lat="56.854859116393" lon="14.756464450355">
        <ele>166</ele>
        <time>2020-03-29T16:05:13Z</time>
      </trkpt>
      <trkpt lat="56.854775967945" lon="14.756381553364">
        <ele>165.6</ele>
        <time>2020-03-29T16:05:15Z</time>
      </trkpt>
      <trkpt lat="56.854680162828" lon="14.756458918301">
        <ele>165</ele>
        <time>2020-03-29T16:05:18Z</time>
      </trkpt>
      <trkpt lat="56.854653927481" lon="14.756508790606">
        <ele>165</ele>
        <time>2020-03-29T16:05:19Z</time>
      </trkpt>
      <trkpt lat="56.854582429874" lon="14.756717080821">
        <ele>165</ele>
        <time>2020-03-29T16:05:22Z</time>
      </trkpt>
      <trkpt lat="56.854512524828" lon="14.756824872055">
        <ele>165.6</ele>
        <time>2020-03-29T16:05:25Z</time>
      </trkpt>
      <trkpt lat="56.854476147382" lon="14.756817915078">
        <ele>166.2</ele>
        <time>2020-03-29T16:05:27Z</time>
      </trkpt>
      <trkpt lat="56.85435980661" lon="14.756821016381">
        <ele>167.2</ele>
        <time>2020-03-29T16:05:34Z</time>
      </trkpt>
      <trkpt lat="56.854317394196" lon="14.756787824057">
        <ele>167.2</ele>
        <time>2020-03-29T16:05:36Z</time>
      </trkpt>
      <trkpt lat="56.854146403436" lon="14.756967867269">
        <ele>166.6</ele>
        <time>2020-03-29T16:05:41Z</time>
      </trkpt>
      <trkpt lat="56.854056884744" lon="14.757182024814">
        <ele>166.4</ele>
        <time>2020-03-29T16:05:44Z</time>
      </trkpt>
      <trkpt lat="56.854008521181" lon="14.757321331992">
        <ele>166.2</ele>
        <time>2020-03-29T16:05:46Z</time>
      </trkpt>
      <trkpt lat="56.853981615282" lon="14.757420489869">
        <ele>166.2</ele>
        <time>2020-03-29T16:05:48Z</time>
      </trkpt>
      <trkpt lat="56.853901232861" lon="14.757516211167">
        <ele>166</ele>
        <time>2020-03-29T16:05:52Z</time>
      </trkpt>
      <trkpt lat="56.853826969227" lon="14.757335078308">
        <ele>166.6</ele>
        <time>2020-03-29T16:05:57Z</time>
      </trkpt>
      <trkpt lat="56.853808612866" lon="14.757107174447">
        <ele>166.8</ele>
        <time>2020-03-29T16:06:01Z</time>
      </trkpt>
      <trkpt lat="56.853730577377" lon="14.757016901384">
        <ele>167</ele>
        <time>2020-03-29T16:06:03Z</time>
      </trkpt>
      <trkpt lat="56.853638879391" lon="14.75700717838">
        <ele>167.2</ele>
        <time>2020-03-29T16:06:05Z</time>
      </trkpt>
      <trkpt lat="56.853450957193" lon="14.757125782265">
        <ele>167.6</ele>
        <time>2020-03-29T16:06:10Z</time>
      </trkpt>
      <trkpt lat="56.853367138193" lon="14.757337844335">
        <ele>167.6</ele>
        <time>2020-03-29T16:06:13Z</time>
      </trkpt>
      <trkpt lat="56.853182065841" lon="14.75764336459">
        <ele>167.4</ele>
        <time>2020-03-29T16:06:19Z</time>
      </trkpt>
      <trkpt lat="56.853160608177" lon="14.757767249072">
        <ele>167.4</ele>
        <time>2020-03-29T16:06:21Z</time>
      </trkpt>
      <trkpt lat="56.853145772214" lon="14.758016526778">
        <ele>166.8</ele>
        <time>2020-03-29T16:06:26Z</time>
      </trkpt>
      <trkpt lat="56.853089362027" lon="14.758058436278">
        <ele>166.8</ele>
        <time>2020-03-29T16:06:30Z</time>
      </trkpt>
      <trkpt lat="56.853182401117" lon="14.757722070631">
        <ele>166.8</ele>
        <time>2020-03-29T16:06:37Z</time>
      </trkpt>
      <trkpt lat="56.853143676739" lon="14.75766851029">
        <ele>167.4</ele>
        <time>2020-03-29T16:06:39Z</time>
      </trkpt>
      <trkpt lat="56.852656353073" lon="14.758212747057">
        <ele>167.4</ele>
        <time>2020-03-29T16:06:56Z</time>
      </trkpt>
      <trkpt lat="56.852493660394" lon="14.75842288129">
        <ele>167.6</ele>
        <time>2020-03-29T16:07:00Z</time>
      </trkpt>
      <trkpt lat="56.852226948336" lon="14.758447859352">
        <ele>168.4</ele>
        <time>2020-03-29T16:07:04Z</time>
      </trkpt>
      <trkpt lat="56.852179842058" lon="14.758457498537">
        <ele>168.2</ele>
        <time>2020-03-29T16:07:05Z</time>
      </trkpt>
      <trkpt lat="56.852026369469" lon="14.758483733884">
        <ele>168.2</ele>
        <time>2020-03-29T16:07:08Z</time>
      </trkpt>
      <trkpt lat="56.851885637368" lon="14.75861063585">
        <ele>168</ele>
        <time>2020-03-29T16:07:11Z</time>
      </trkpt>
      <trkpt lat="56.851786647129" lon="14.758717002161">
        <ele>168</ele>
        <time>2020-03-29T16:07:13Z</time>
      </trkpt>
      <trkpt lat="56.851678772076" lon="14.758862847221">
        <ele>168.2</ele>
        <time>2020-03-29T16:07:15Z</time>
      </trkpt>
      <trkpt lat="56.851646753218" lon="14.759013386145">
        <ele>168.2</ele>
        <time>2020-03-29T16:07:17Z</time>
      </trkpt>
      <trkpt lat="56.851667791787" lon="14.759083542648">
        <ele>168.4</ele>
        <time>2020-03-29T16:07:19Z</time>
      </trkpt>
      <trkpt lat="56.851722106499" lon="14.759188484036">
        <ele>168.4</ele>
        <time>2020-03-29T16:07:21Z</time>
      </trkpt>
      <trkpt lat="56.851687070157" lon="14.759431642955">
        <ele>168.6</ele>
        <time>2020-03-29T16:07:24Z</time>
      </trkpt>
      <trkpt lat="56.851713808418" lon="14.759563238785">
        <ele>168.8</ele>
        <time>2020-03-29T16:07:26Z</time>
      </trkpt>
      <trkpt lat="56.851786479491" lon="14.759659043902">
        <ele>169</ele>
        <time>2020-03-29T16:07:28Z</time>
      </trkpt>
      <trkpt lat="56.852042714174" lon="14.760010999883">
        <ele>168.2</ele>
        <time>2020-03-29T16:07:34Z</time>
      </trkpt>
      <trkpt lat="56.852115636704" lon="14.760136728383">
        <ele>167.2</ele>
        <time>2020-03-29T16:07:37Z</time>
      </trkpt>
      <trkpt lat="56.852082276742" lon="14.760047964062">
        <ele>167.4</ele>
        <time>2020-03-29T16:07:40Z</time>
      </trkpt>
      <trkpt lat="56.852006504366" lon="14.759946123977">
        <ele>167.2</ele>
        <time>2020-03-29T16:07:42Z</time>
      </trkpt>
      <trkpt lat="56.851928552696" lon="14.759886696306">
        <ele>167.6</ele>
        <time>2020-03-29T16:07:44Z</time>
      </trkpt>
      <trkpt lat="56.851894773639" lon="14.759744120187">
        <ele>167.6</ele>
        <time>2020-03-29T16:07:46Z</time>
      </trkpt>
      <trkpt lat="56.851930145257" lon="14.759589306494">
        <ele>167.4</ele>
        <time>2020-03-29T16:07:48Z</time>
      </trkpt>
      <trkpt lat="56.851992171317" lon="14.759464919098">
        <ele>167.4</ele>
        <time>2020-03-29T16:07:50Z</time>
      </trkpt>
      <trkpt lat="56.852035589559" lon="14.759223520378">
        <ele>167.2</ele>
        <time>2020-03-29T16:07:53Z</time>
      </trkpt>
      <trkpt lat="56.852150170132" lon="14.758924705643">
        <ele>167.4</ele>
        <time>2020-03-29T16:07:57Z</time>
      </trkpt>
      <trkpt lat="56.852216722418" lon="14.758691605004">
        <ele>167.6</ele>
        <time>2020-03-29T16:08:00Z</time>
      </trkpt>
      <trkpt lat="56.852224769042" lon="14.758836863331">
        <ele>167.8</ele>
        <time>2020-03-29T16:08:04Z</time>
      </trkpt>
      <trkpt lat="56.852205993586" lon="14.759093684747">
        <ele>167.6</ele>
        <time>2020-03-29T16:08:08Z</time>
      </trkpt>
      <trkpt lat="56.852249579466" lon="14.759359642434">
        <ele>166.8</ele>
        <time>2020-03-29T16:08:12Z</time>
      </trkpt>
      <trkpt lat="56.852340774538" lon="14.75944379671">
        <ele>166.8</ele>
        <time>2020-03-29T16:08:14Z</time>
      </trkpt>
      <trkpt lat="56.852398693467" lon="14.759613614004">
        <ele>166.8</ele>
        <time>2020-03-29T16:08:16Z</time>
      </trkpt>
      <trkpt lat="56.852474130567" lon="14.759754429924">
        <ele>166.4</ele>
        <time>2020-03-29T16:08:18Z</time>
      </trkpt>
      <trkpt lat="56.852510172737" lon="14.759815869251">
        <ele>166.2</ele>
        <time>2020-03-29T16:08:19Z</time>
      </trkpt>
      <trkpt lat="56.852566499105" lon="14.759933215851">
        <ele>165.8</ele>
        <time>2020-03-29T16:08:21Z</time>
      </trkpt>
      <trkpt lat="56.852635901237" lon="14.759917793155">
        <ele>165.4</ele>
        <time>2020-03-29T16:08:23Z</time>
      </trkpt>
      <trkpt lat="56.852658448548" lon="14.7597966747">
        <ele>165.4</ele>
        <time>2020-03-29T16:08:25Z</time>
      </trkpt>
      <trkpt lat="56.852649144639" lon="14.759631215994">
        <ele>165.4</ele>
        <time>2020-03-29T16:08:27Z</time>
      </trkpt>
      <trkpt lat="56.852681079678" lon="14.759198290859">
        <ele>165.8</ele>
        <time>2020-03-29T16:08:33Z</time>
      </trkpt>
      <trkpt lat="56.852615197944" lon="14.758792606899">
        <ele>167</ele>
        <time>2020-03-29T16:08:41Z</time>
      </trkpt>
      <trkpt lat="56.852667836276" lon="14.758759246937">
        <ele>167.2</ele>
        <time>2020-03-29T16:08:44Z</time>
      </trkpt>
      <trkpt lat="56.852715110192" lon="14.758741225852">
        <ele>166.8</ele>
        <time>2020-03-29T16:08:46Z</time>
      </trkpt>
      <trkpt lat="56.852754588941" lon="14.758823452291">
        <ele>166.6</ele>
        <time>2020-03-29T16:08:48Z</time>
      </trkpt>
      <trkpt lat="56.852780824288" lon="14.75889562045">
        <ele>166</ele>
        <time>2020-03-29T16:08:50Z</time>
      </trkpt>
      <trkpt lat="56.852799767382" lon="14.759010703937">
        <ele>166.2</ele>
        <time>2020-03-29T16:08:53Z</time>
      </trkpt>
      <trkpt lat="56.852881155631" lon="14.759195524832">
        <ele>165.8</ele>
        <time>2020-03-29T16:08:56Z</time>
      </trkpt>
      <trkpt lat="56.852939493655" lon="14.759337011304">
        <ele>165.8</ele>
        <time>2020-03-29T16:08:58Z</time>
      </trkpt>
      <trkpt lat="56.852935218886" lon="14.759643537387">
        <ele>166.4</ele>
        <time>2020-03-29T16:09:02Z</time>
      </trkpt>
      <trkpt lat="56.852871935541" lon="14.759794076311">
        <ele>166.6</ele>
        <time>2020-03-29T16:09:04Z</time>
      </trkpt>
      <trkpt lat="56.852826589462" lon="14.759974706256">
        <ele>166.4</ele>
        <time>2020-03-29T16:09:06Z</time>
      </trkpt>
      <trkpt lat="56.852930189746" lon="14.760536125918">
        <ele>166.6</ele>
        <time>2020-03-29T16:09:13Z</time>
      </trkpt>
      <trkpt lat="56.85290973791" lon="14.760859583439">
        <ele>166.4</ele>
        <time>2020-03-29T16:09:16Z</time>
      </trkpt>
      <trkpt lat="56.852848130945" lon="14.761231069247">
        <ele>166.2</ele>
        <time>2020-03-29T16:09:20Z</time>
      </trkpt>
      <trkpt lat="56.852773867311" lon="14.761447657543">
        <ele>166.4</ele>
        <time>2020-03-29T16:09:23Z</time>
      </trkpt>
      <trkpt lat="56.852682504601" lon="14.761562489573">
        <ele>166.2</ele>
        <time>2020-03-29T16:09:26Z</time>
      </trkpt>
      <trkpt lat="56.852306492567" lon="14.761107184765">
        <ele>167</ele>
        <time>2020-03-29T16:09:36Z</time>
      </trkpt>
      <trkpt lat="56.852238180082" lon="14.760986233948">
        <ele>167.2</ele>
        <time>2020-03-29T16:09:38Z</time>
      </trkpt>
      <trkpt lat="56.851953949853" lon="14.760540065411">
        <ele>167.8</ele>
        <time>2020-03-29T16:09:46Z</time>
      </trkpt>
      <trkpt lat="56.851807182784" lon="14.760239658115">
        <ele>168</ele>
        <time>2020-03-29T16:09:51Z</time>
      </trkpt>
      <trkpt lat="56.851521527632" lon="14.759666922888">
        <ele>168.2</ele>
        <time>2020-03-29T16:10:00Z</time>
      </trkpt>
      <trkpt lat="56.851262778379" lon="14.759386883609">
        <ele>168.6</ele>
        <time>2020-03-29T16:10:07Z</time>
      </trkpt>
      <trkpt lat="56.850706387857" lon="14.759267106258">
        <ele>169</ele>
        <time>2020-03-29T16:10:19Z</time>
      </trkpt>
      <trkpt lat="56.850622065943" lon="14.759249923363">
        <ele>169.2</ele>
        <time>2020-03-29T16:10:21Z</time>
      </trkpt>
      <trkpt lat="56.850362227043" lon="14.759231986097">
        <ele>170.4</ele>
        <time>2020-03-29T16:10:29Z</time>
      </trkpt>
      <trkpt lat="56.849842046329" lon="14.758990503558">
        <ele>171.4</ele>
        <time>2020-03-29T16:10:42Z</time>
      </trkpt>
      <trkpt lat="56.84979753844" lon="14.758939038692">
        <ele>171.4</ele>
        <time>2020-03-29T16:10:43Z</time>
      </trkpt>
      <trkpt lat="56.849609029509" lon="14.758676601403">
        <ele>171.2</ele>
        <time>2020-03-29T16:10:48Z</time>
      </trkpt>
      <trkpt lat="56.849536693712" lon="14.758527235945">
        <ele>170.8</ele>
        <time>2020-03-29T16:10:50Z</time>
      </trkpt>
      <trkpt lat="56.849456814205" lon="14.758295979324">
        <ele>170.8</ele>
        <time>2020-03-29T16:10:53Z</time>
      </trkpt>
      <trkpt lat="56.84938598715" lon="14.7580700033">
        <ele>170.8</ele>
        <time>2020-03-29T16:10:56Z</time>
      </trkpt>
      <trkpt lat="56.849256822071" lon="14.757151514698">
        <ele>171</ele>
        <time>2020-03-29T16:11:08Z</time>
      </trkpt>
      <trkpt lat="56.84922002553" lon="14.757003322706">
        <ele>171.2</ele>
        <time>2020-03-29T16:11:10Z</time>
      </trkpt>
      <trkpt lat="56.84915967585" lon="14.756846581176">
        <ele>171.4</ele>
        <time>2020-03-29T16:11:12Z</time>
      </trkpt>
      <trkpt lat="56.848947697599" lon="14.756273259216">
        <ele>172</ele>
        <time>2020-03-29T16:11:21Z</time>
      </trkpt>
      <trkpt lat="56.848858598002" lon="14.756041499681">
        <ele>172.2</ele>
        <time>2020-03-29T16:11:24Z</time>
      </trkpt>
      <trkpt lat="56.848757428469" lon="14.755841759004">
        <ele>172.4</ele>
        <time>2020-03-29T16:11:27Z</time>
      </trkpt>
      <trkpt lat="56.848494739723" lon="14.755154024109">
        <ele>172.6</ele>
        <time>2020-03-29T16:11:35Z</time>
      </trkpt>
      <trkpt lat="56.848200283576" lon="14.75428389907">
        <ele>172.2</ele>
        <time>2020-03-29T16:11:43Z</time>
      </trkpt>
      <trkpt lat="56.847997190139" lon="14.753668248515">
        <ele>171.4</ele>
        <time>2020-03-29T16:11:49Z</time>
      </trkpt>
      <trkpt lat="56.847668032926" lon="14.752796866191">
        <ele>171.4</ele>
        <time>2020-03-29T16:11:59Z</time>
      </trkpt>
      <trkpt lat="56.847542891159" lon="14.752430325704">
        <ele>172.8</ele>
        <time>2020-03-29T16:12:05Z</time>
      </trkpt>
      <trkpt lat="56.847147097841" lon="14.751816602986">
        <ele>173.8</ele>
        <time>2020-03-29T16:12:17Z</time>
      </trkpt>
      <trkpt lat="56.847052550009" lon="14.751705794268">
        <ele>175</ele>
        <time>2020-03-29T16:12:20Z</time>
      </trkpt>
      <trkpt lat="56.846858425205" lon="14.751448218481">
        <ele>176</ele>
        <time>2020-03-29T16:12:26Z</time>
      </trkpt>
      <trkpt lat="56.846814336411" lon="14.751313102253">
        <ele>176</ele>
        <time>2020-03-29T16:12:28Z</time>
      </trkpt>
      <trkpt lat="56.846674861595" lon="14.750361672784">
        <ele>176.2</ele>
        <time>2020-03-29T16:12:42Z</time>
      </trkpt>
      <trkpt lat="56.84659816721" lon="14.749903601949">
        <ele>177</ele>
        <time>2020-03-29T16:12:49Z</time>
      </trkpt>
      <trkpt lat="56.84653027382" lon="14.749837720215">
        <ele>177</ele>
        <time>2020-03-29T16:12:52Z</time>
      </trkpt>
      <trkpt lat="56.846499931342" lon="14.749839061319">
        <ele>177</ele>
        <time>2020-03-29T16:12:53Z</time>
      </trkpt>
      <trkpt lat="56.846057953755" lon="14.750257821043">
        <ele>177.8</ele>
        <time>2020-03-29T16:13:04Z</time>
      </trkpt>
      <trkpt lat="56.845725108506" lon="14.750602317133">
        <ele>178</ele>
        <time>2020-03-29T16:13:10Z</time>
      </trkpt>
      <trkpt lat="56.845443811942" lon="14.750937257857">
        <ele>178.2</ele>
        <time>2020-03-29T16:13:15Z</time>
      </trkpt>
      <trkpt lat="56.84503410467" lon="14.751408739732">
        <ele>179</ele>
        <time>2020-03-29T16:13:23Z</time>
      </trkpt>
      <trkpt lat="56.844990183514" lon="14.751470598154">
        <ele>179.2</ele>
        <time>2020-03-29T16:13:24Z</time>
      </trkpt>
      <trkpt lat="56.844710730968" lon="14.751874186639">
        <ele>180.2</ele>
        <time>2020-03-29T16:13:31Z</time>
      </trkpt>
      <trkpt lat="56.844693715711" lon="14.751949204644">
        <ele>180.2</ele>
        <time>2020-03-29T16:13:32Z</time>
      </trkpt>
      <trkpt lat="56.844494645586" lon="14.752822514805">
        <ele>181.2</ele>
        <time>2020-03-29T16:13:49Z</time>
      </trkpt>
      <trkpt lat="56.844114945516" lon="14.753529779527">
        <ele>180.6</ele>
        <time>2020-03-29T16:14:05Z</time>
      </trkpt>
      <trkpt lat="56.84386063867" lon="14.753906629751">
        <ele>181.4</ele>
        <time>2020-03-29T16:14:14Z</time>
      </trkpt>
      <trkpt lat="56.843697610715" lon="14.754066304946">
        <ele>182.4</ele>
        <time>2020-03-29T16:14:22Z</time>
      </trkpt>
      <trkpt lat="56.843540366271" lon="14.754189435057">
        <ele>183.6</ele>
        <time>2020-03-29T16:14:28Z</time>
      </trkpt>
      <trkpt lat="56.843030746751" lon="14.754494033303">
        <ele>184.4</ele>
        <time>2020-03-29T16:14:48Z</time>
      </trkpt>
      <trkpt lat="56.842973498374" lon="14.754619091251">
        <ele>184.6</ele>
        <time>2020-03-29T16:14:51Z</time>
      </trkpt>
      <trkpt lat="56.84267040887" lon="14.75519836436">
        <ele>183.6</ele>
        <time>2020-03-29T16:15:05Z</time>
      </trkpt>
      <trkpt lat="56.842603856584" lon="14.755432387008">
        <ele>182.6</ele>
        <time>2020-03-29T16:15:17Z</time>
      </trkpt>
      <trkpt lat="56.84253797485" lon="14.755466417522">
        <ele>182.4</ele>
        <time>2020-03-29T16:15:27Z</time>
      </trkpt>
      <trkpt lat="56.842481732301" lon="14.755499106932">
        <ele>182.2</ele>
        <time>2020-03-29T16:15:34Z</time>
      </trkpt>
      <trkpt lat="56.842406630477" lon="14.755630367486">
        <ele>182</ele>
        <time>2020-03-29T16:15:49Z</time>
      </trkpt>
      <trkpt lat="56.842254163716" lon="14.75570463112">
        <ele>182.8</ele>
        <time>2020-03-29T16:16:05Z</time>
      </trkpt>
      <trkpt lat="56.842072863219" lon="14.755804291911">
        <ele>183.2</ele>
        <time>2020-03-29T16:16:19Z</time>
      </trkpt>
      <trkpt lat="56.842020392525" lon="14.755827174498">
        <ele>183.6</ele>
        <time>2020-03-29T16:16:23Z</time>
      </trkpt>
      <trkpt lat="56.841985523821" lon="14.75578342098">
        <ele>184</ele>
        <time>2020-03-29T16:16:26Z</time>
      </trkpt>
      <trkpt lat="56.841942273217" lon="14.755719550902">
        <ele>184.2</ele>
        <time>2020-03-29T16:16:29Z</time>
      </trkpt>
      <trkpt lat="56.84185736457" lon="14.755560630078">
        <ele>184.4</ele>
        <time>2020-03-29T16:16:34Z</time>
      </trkpt>
      <trkpt lat="56.841805480609" lon="14.75558812271">
        <ele>184.8</ele>
        <time>2020-03-29T16:16:36Z</time>
      </trkpt>
      <trkpt lat="56.841634070754" lon="14.755773949433">
        <ele>186</ele>
        <time>2020-03-29T16:16:42Z</time>
      </trkpt>
      <trkpt lat="56.841506079141" lon="14.755911496412">
        <ele>187.2</ele>
        <time>2020-03-29T16:16:46Z</time>
      </trkpt>
      <trkpt lat="56.841335423657" lon="14.756118445523">
        <ele>188.4</ele>
        <time>2020-03-29T16:16:51Z</time>
      </trkpt>
      <trkpt lat="56.841251017924" lon="14.756219698875">
        <ele>188.6</ele>
        <time>2020-03-29T16:16:53Z</time>
      </trkpt>
      <trkpt lat="56.841028897574" lon="14.756488925503">
        <ele>188.4</ele>
        <time>2020-03-29T16:16:59Z</time>
      </trkpt>
      <trkpt lat="56.84096133946" lon="14.756607529388">
        <ele>188.4</ele>
        <time>2020-03-29T16:17:01Z</time>
      </trkpt>
      <trkpt lat="56.840947425506" lon="14.756730994775">
        <ele>188.2</ele>
        <time>2020-03-29T16:17:03Z</time>
      </trkpt>
      <trkpt lat="56.840969134627" lon="14.756936435144">
        <ele>187.6</ele>
        <time>2020-03-29T16:17:06Z</time>
      </trkpt>
      <trkpt lat="56.841018923113" lon="14.757089907733">
        <ele>187.4</ele>
        <time>2020-03-29T16:17:09Z</time>
      </trkpt>
      <trkpt lat="56.841011798498" lon="14.757128464473">
        <ele>187.4</ele>
        <time>2020-03-29T16:17:10Z</time>
      </trkpt>
      <trkpt lat="56.840922447444" lon="14.757433984728">
        <ele>187.4</ele>
        <time>2020-03-29T16:17:16Z</time>
      </trkpt>
      <trkpt lat="56.841041721881" lon="14.757736068404">
        <ele>186.2</ele>
        <time>2020-03-29T16:17:21Z</time>
      </trkpt>
      <trkpt lat="56.841093186747" lon="14.75789733616">
        <ele>184.6</ele>
        <time>2020-03-29T16:17:24Z</time>
      </trkpt>
      <trkpt lat="56.841099473172" lon="14.75803396113">
        <ele>184</ele>
        <time>2020-03-29T16:17:26Z</time>
      </trkpt>
      <trkpt lat="56.84108203882" lon="14.758151140092">
        <ele>183.4</ele>
        <time>2020-03-29T16:17:28Z</time>
      </trkpt>
      <trkpt lat="56.841037028017" lon="14.758289022347">
        <ele>182.2</ele>
        <time>2020-03-29T16:17:31Z</time>
      </trkpt>
      <trkpt lat="56.841028981393" lon="14.758464371695">
        <ele>181</ele>
        <time>2020-03-29T16:17:34Z</time>
      </trkpt>
      <trkpt lat="56.841022275873" lon="14.758578700811">
        <ele>180.2</ele>
        <time>2020-03-29T16:17:36Z</time>
      </trkpt>
      <trkpt lat="56.841012636688" lon="14.758605271434">
        <ele>179.8</ele>
        <time>2020-03-29T16:17:37Z</time>
      </trkpt>
      <trkpt lat="56.840997884544" lon="14.758635027179">
        <ele>179.2</ele>
        <time>2020-03-29T16:17:38Z</time>
      </trkpt>
      <trkpt lat="56.840985982246" lon="14.758669812064">
        <ele>178.6</ele>
        <time>2020-03-29T16:17:39Z</time>
      </trkpt>
      <trkpt lat="56.840918088856" lon="14.75880593412">
        <ele>177.4</ele>
        <time>2020-03-29T16:17:42Z</time>
      </trkpt>
      <trkpt lat="56.840861091936" lon="14.758870642388">
        <ele>176.8</ele>
        <time>2020-03-29T16:17:44Z</time>
      </trkpt>
      <trkpt lat="56.840785990112" lon="14.758859997375">
        <ele>177.4</ele>
        <time>2020-03-29T16:17:48Z</time>
      </trkpt>
      <trkpt lat="56.840763107525" lon="14.758854381502">
        <ele>178.4</ele>
        <time>2020-03-29T16:17:50Z</time>
      </trkpt>
      <trkpt lat="56.840737878006" lon="14.758851531656">
        <ele>179.2</ele>
        <time>2020-03-29T16:17:52Z</time>
      </trkpt>
      <trkpt lat="56.840739889662" lon="14.75882856525">
        <ele>179.8</ele>
        <time>2020-03-29T16:17:53Z</time>
      </trkpt>
      <trkpt lat="56.840750618494" lon="14.758804425378">
        <ele>181</ele>
        <time>2020-03-29T16:17:55Z</time>
      </trkpt>
      <trkpt lat="56.840732094495" lon="14.758785230827">
        <ele>181.4</ele>
        <time>2020-03-29T16:17:56Z</time>
      </trkpt>
      <trkpt lat="56.840726813898" lon="14.758657071576">
        <ele>182.2</ele>
        <time>2020-03-29T16:18:00Z</time>
      </trkpt>
      <trkpt lat="56.840678534154" lon="14.758545927582">
        <ele>183.4</ele>
        <time>2020-03-29T16:18:03Z</time>
      </trkpt>
      <trkpt lat="56.840653388454" lon="14.758520195149">
        <ele>184</ele>
        <time>2020-03-29T16:18:04Z</time>
      </trkpt>
      <trkpt lat="56.840630589686" lon="14.758496390553">
        <ele>184.6</ele>
        <time>2020-03-29T16:18:05Z</time>
      </trkpt>
      <trkpt lat="56.840492455974" lon="14.758382983446">
        <ele>185.6</ele>
        <time>2020-03-29T16:18:10Z</time>
      </trkpt>
      <trkpt lat="56.84041483958" lon="14.758356412823">
        <ele>185.8</ele>
        <time>2020-03-29T16:18:13Z</time>
      </trkpt>
      <trkpt lat="56.840293218211" lon="14.758473088871">
        <ele>184.6</ele>
        <time>2020-03-29T16:18:17Z</time>
      </trkpt>
      <trkpt lat="56.840237562395" lon="14.758560512088">
        <ele>183.4</ele>
        <time>2020-03-29T16:18:19Z</time>
      </trkpt>
      <trkpt lat="56.840184672606" lon="14.758661430164">
        <ele>182.4</ele>
        <time>2020-03-29T16:18:21Z</time>
      </trkpt>
      <trkpt lat="56.840141422002" lon="14.758720857835">
        <ele>181</ele>
        <time>2020-03-29T16:18:23Z</time>
      </trkpt>
      <trkpt lat="56.840033714587" lon="14.758753798702">
        <ele>179.6</ele>
        <time>2020-03-29T16:18:25Z</time>
      </trkpt>
      <trkpt lat="56.839915697435" lon="14.758823284653">
        <ele>178.8</ele>
        <time>2020-03-29T16:18:27Z</time>
      </trkpt>
      <trkpt lat="56.839881415464" lon="14.758875336252">
        <ele>178.4</ele>
        <time>2020-03-29T16:18:28Z</time>
      </trkpt>
      <trkpt lat="56.839826094924" lon="14.759059821871">
        <ele>177.2</ele>
        <time>2020-03-29T16:18:31Z</time>
      </trkpt>
      <trkpt lat="56.83973087654" lon="14.759383866125">
        <ele>176.2</ele>
        <time>2020-03-29T16:18:36Z</time>
      </trkpt>
      <trkpt lat="56.839674633991" lon="14.759583187707">
        <ele>175.6</ele>
        <time>2020-03-29T16:18:39Z</time>
      </trkpt>
      <trkpt lat="56.839682010063" lon="14.759713190976">
        <ele>175.2</ele>
        <time>2020-03-29T16:18:41Z</time>
      </trkpt>
      <trkpt lat="56.839711095256" lon="14.760124742266">
        <ele>174</ele>
        <time>2020-03-29T16:18:47Z</time>
      </trkpt>
      <trkpt lat="56.839526106723" lon="14.760944324448">
        <ele>173</ele>
        <time>2020-03-29T16:19:01Z</time>
      </trkpt>
      <trkpt lat="56.83947355221" lon="14.761154207224">
        <ele>172.2</ele>
        <time>2020-03-29T16:19:11Z</time>
      </trkpt>
      <trkpt lat="56.839456704591" lon="14.761259064793">
        <ele>172.2</ele>
        <time>2020-03-29T16:19:14Z</time>
      </trkpt>
      <trkpt lat="56.839408424847" lon="14.761518484598">
        <ele>172.6</ele>
        <time>2020-03-29T16:19:22Z</time>
      </trkpt>
      <trkpt lat="56.8393570438" lon="14.761578079907">
        <ele>172.2</ele>
        <time>2020-03-29T16:19:25Z</time>
      </trkpt>
      <trkpt lat="56.839227711083" lon="14.761580426839">
        <ele>172</ele>
        <time>2020-03-29T16:19:29Z</time>
      </trkpt>
      <trkpt lat="56.839016403384" lon="14.761730714306">
        <ele>173.2</ele>
        <time>2020-03-29T16:19:37Z</time>
      </trkpt>
      <trkpt lat="56.838894782015" lon="14.761825010681">
        <ele>174.4</ele>
        <time>2020-03-29T16:19:42Z</time>
      </trkpt>
      <trkpt lat="56.838625136292" lon="14.761929952069">
        <ele>175.2</ele>
        <time>2020-03-29T16:19:49Z</time>
      </trkpt>
      <trkpt lat="56.838186511465" lon="14.762316190021">
        <ele>175.6</ele>
        <time>2020-03-29T16:20:00Z</time>
      </trkpt>
      <trkpt lat="56.838105542311" lon="14.762463879099">
        <ele>176</ele>
        <time>2020-03-29T16:20:08Z</time>
      </trkpt>
      <trkpt lat="56.838058771309" lon="14.762541495493">
        <ele>176</ele>
        <time>2020-03-29T16:20:10Z</time>
      </trkpt>
      <trkpt lat="56.837947543496" lon="14.762748696061">
        <ele>176.4</ele>
        <time>2020-03-29T16:20:16Z</time>
      </trkpt>
      <trkpt lat="56.837939161596" lon="14.762864282462">
        <ele>176.6</ele>
        <time>2020-03-29T16:20:18Z</time>
      </trkpt>
      <trkpt lat="56.837839333167" lon="14.763254124631">
        <ele>177.8</ele>
        <time>2020-03-29T16:20:25Z</time>
      </trkpt>
      <trkpt lat="56.837586870339" lon="14.763854603947">
        <ele>177.8</ele>
        <time>2020-03-29T16:20:37Z</time>
      </trkpt>
      <trkpt lat="56.837732128666" lon="14.764339915957">
        <ele>178.8</ele>
        <time>2020-03-29T16:20:46Z</time>
      </trkpt>
      <trkpt lat="56.838114091849" lon="14.764732859429">
        <ele>179.8</ele>
        <time>2020-03-29T16:20:59Z</time>
      </trkpt>
      <trkpt lat="56.838159186471" lon="14.76473948113">
        <ele>180.2</ele>
        <time>2020-03-29T16:21:01Z</time>
      </trkpt>
      <trkpt lat="56.838216686305" lon="14.764669492265">
        <ele>181</ele>
        <time>2020-03-29T16:21:05Z</time>
      </trkpt>
      <trkpt lat="56.838372338188" lon="14.764554911692">
        <ele>182</ele>
        <time>2020-03-29T16:21:13Z</time>
      </trkpt>
      <trkpt lat="56.838404608503" lon="14.764517025504">
        <ele>182.6</ele>
        <time>2020-03-29T16:21:15Z</time>
      </trkpt>
      <trkpt lat="56.838435118619" lon="14.764554157321">
        <ele>183</ele>
        <time>2020-03-29T16:21:17Z</time>
      </trkpt>
      <trkpt lat="56.83834786304" lon="14.764836124437">
        <ele>182.6</ele>
        <time>2020-03-29T16:21:24Z</time>
      </trkpt>
      <trkpt lat="56.83825314757" lon="14.765188331875">
        <ele>180.6</ele>
        <time>2020-03-29T16:21:29Z</time>
      </trkpt>
      <trkpt lat="56.838215680477" lon="14.765376421711">
        <ele>179.6</ele>
        <time>2020-03-29T16:21:32Z</time>
      </trkpt>
      <trkpt lat="56.83821794359" lon="14.765550094679">
        <ele>178.4</ele>
        <time>2020-03-29T16:21:35Z</time>
      </trkpt>
      <trkpt lat="56.838186343827" lon="14.765624442132">
        <ele>177.8</ele>
        <time>2020-03-29T16:21:37Z</time>
      </trkpt>
      <trkpt lat="56.83816178486" lon="14.765697699938">
        <ele>177.4</ele>
        <time>2020-03-29T16:21:39Z</time>
      </trkpt>
      <trkpt lat="56.838134040771" lon="14.765815465633">
        <ele>176.4</ele>
        <time>2020-03-29T16:21:42Z</time>
      </trkpt>
      <trkpt lat="56.838156839539" lon="14.765960975417">
        <ele>175.4</ele>
        <time>2020-03-29T16:21:46Z</time>
      </trkpt>
      <trkpt lat="56.838178632479" lon="14.765957874114">
        <ele>175.4</ele>
        <time>2020-03-29T16:21:48Z</time>
      </trkpt>
      <trkpt lat="56.838201263609" lon="14.766049069186">
        <ele>175.6</ele>
        <time>2020-03-29T16:21:52Z</time>
      </trkpt>
      <trkpt lat="56.838238311607" lon="14.766103467717">
        <ele>175.8</ele>
        <time>2020-03-29T16:21:54Z</time>
      </trkpt>
      <trkpt lat="56.838283825324" lon="14.766221652507">
        <ele>175.4</ele>
        <time>2020-03-29T16:21:57Z</time>
      </trkpt>
      <trkpt lat="56.838314670716" lon="14.766339166745">
        <ele>174.2</ele>
        <time>2020-03-29T16:22:00Z</time>
      </trkpt>
      <trkpt lat="56.838466550744" lon="14.766689027251">
        <ele>173.4</ele>
        <time>2020-03-29T16:22:09Z</time>
      </trkpt>
      <trkpt lat="56.838465964011" lon="14.766750550397">
        <ele>173.2</ele>
        <time>2020-03-29T16:22:10Z</time>
      </trkpt>
      <trkpt lat="56.83843335842" lon="14.767071577167">
        <ele>172.2</ele>
        <time>2020-03-29T16:22:18Z</time>
      </trkpt>
      <trkpt lat="56.83844257851" lon="14.767377600336">
        <ele>171</ele>
        <time>2020-03-29T16:22:26Z</time>
      </trkpt>
      <trkpt lat="56.838514579031" lon="14.767670296284">
        <ele>170.2</ele>
        <time>2020-03-29T16:22:32Z</time>
      </trkpt>
      <trkpt lat="56.838515836316" lon="14.767742464443">
        <ele>170</ele>
        <time>2020-03-29T16:22:34Z</time>
      </trkpt>
      <trkpt lat="56.838512315918" lon="14.767858721396">
        <ele>169</ele>
        <time>2020-03-29T16:22:38Z</time>
      </trkpt>
      <trkpt lat="56.838538215989" lon="14.768035830943">
        <ele>168</ele>
        <time>2020-03-29T16:22:44Z</time>
      </trkpt>
      <trkpt lat="56.83855489597" lon="14.768113614975">
        <ele>168.2</ele>
        <time>2020-03-29T16:22:46Z</time>
      </trkpt>
      <trkpt lat="56.838579371118" lon="14.768249234117">
        <ele>168.6</ele>
        <time>2020-03-29T16:22:50Z</time>
      </trkpt>
      <trkpt lat="56.838231270811" lon="14.768977621227">
        <ele>168.2</ele>
        <time>2020-03-29T16:23:02Z</time>
      </trkpt>
      <trkpt lat="56.838187182017" lon="14.76904777773">
        <ele>167.8</ele>
        <time>2020-03-29T16:23:03Z</time>
      </trkpt>
      <trkpt lat="56.838017197085" lon="14.769263611655">
        <ele>166.8</ele>
        <time>2020-03-29T16:23:06Z</time>
      </trkpt>
      <trkpt lat="56.837692314641" lon="14.769626715563">
        <ele>165.6</ele>
        <time>2020-03-29T16:23:11Z</time>
      </trkpt>
      <trkpt lat="56.837489891756" lon="14.769877418192">
        <ele>164.6</ele>
        <time>2020-03-29T16:23:14Z</time>
      </trkpt>
      <trkpt lat="56.837436918148" lon="14.769951430369">
        <ele>164.6</ele>
        <time>2020-03-29T16:23:15Z</time>
      </trkpt>
      <trkpt lat="56.837403642005" lon="14.770031142238">
        <ele>164.6</ele>
        <time>2020-03-29T16:23:16Z</time>
      </trkpt>
      <trkpt lat="56.837381681427" lon="14.770249658371">
        <ele>164.2</ele>
        <time>2020-03-29T16:23:18Z</time>
      </trkpt>
      <trkpt lat="56.83742753042" lon="14.771313992033">
        <ele>163.6</ele>
        <time>2020-03-29T16:23:27Z</time>
      </trkpt>
      <trkpt lat="56.837477738001" lon="14.771853534936">
        <ele>163.8</ele>
        <time>2020-03-29T16:23:32Z</time>
      </trkpt>
      <trkpt lat="56.837458711088" lon="14.772048078835">
        <ele>164.2</ele>
        <time>2020-03-29T16:23:34Z</time>
      </trkpt>
      <trkpt lat="56.837401211254" lon="14.77221529774">
        <ele>164.2</ele>
        <time>2020-03-29T16:23:36Z</time>
      </trkpt>
      <trkpt lat="56.837167942977" lon="14.772595081629">
        <ele>164.2</ele>
        <time>2020-03-29T16:23:42Z</time>
      </trkpt>
      <trkpt lat="56.836979853141" lon="14.77276850314">
        <ele>164</ele>
        <time>2020-03-29T16:23:46Z</time>
      </trkpt>
      <trkpt lat="56.836870050251" lon="14.772818626902">
        <ele>164.4</ele>
        <time>2020-03-29T16:23:48Z</time>
      </trkpt>
      <trkpt lat="56.836619347622" lon="14.772952234388">
        <ele>164.6</ele>
        <time>2020-03-29T16:23:52Z</time>
      </trkpt>
      <trkpt lat="56.836041080341" lon="14.773139234577">
        <ele>164</ele>
        <time>2020-03-29T16:24:01Z</time>
      </trkpt>
      <trkpt lat="56.835647047222" lon="14.77327979904">
        <ele>164.2</ele>
        <time>2020-03-29T16:24:08Z</time>
      </trkpt>
      <trkpt lat="56.835544033671" lon="14.773341657462">
        <ele>164.2</ele>
        <time>2020-03-29T16:24:10Z</time>
      </trkpt>
      <trkpt lat="56.835440517206" lon="14.773425225005">
        <ele>164.4</ele>
        <time>2020-03-29T16:24:12Z</time>
      </trkpt>
      <trkpt lat="56.835268101523" lon="14.773678106928">
        <ele>164.6</ele>
        <time>2020-03-29T16:24:17Z</time>
      </trkpt>
      <trkpt lat="56.835204315264" lon="14.773748263431">
        <ele>164.8</ele>
        <time>2020-03-29T16:24:19Z</time>
      </trkpt>
      <trkpt lat="56.834879935734" lon="14.773965354641">
        <ele>165.8</ele>
        <time>2020-03-29T16:24:27Z</time>
      </trkpt>
      <trkpt lat="56.83463384315" lon="14.774093178616">
        <ele>166</ele>
        <time>2020-03-29T16:24:30Z</time>
      </trkpt>
      <trkpt lat="56.834476095792" lon="14.774163335119">
        <ele>166.2</ele>
        <time>2020-03-29T16:24:32Z</time>
      </trkpt>
      <trkpt lat="56.834076949714" lon="14.774157216332">
        <ele>166</ele>
        <time>2020-03-29T16:24:38Z</time>
      </trkpt>
      <trkpt lat="56.833581830881" lon="14.774226367007">
        <ele>165.6</ele>
        <time>2020-03-29T16:24:47Z</time>
      </trkpt>
      <trkpt lat="56.833502370469" lon="14.774307336161">
        <ele>165.4</ele>
        <time>2020-03-29T16:24:49Z</time>
      </trkpt>
      <trkpt lat="56.833375468503" lon="14.774462568949">
        <ele>165.4</ele>
        <time>2020-03-29T16:24:52Z</time>
      </trkpt>
      <trkpt lat="56.833312436615" lon="14.774608497828">
        <ele>165.8</ele>
        <time>2020-03-29T16:24:54Z</time>
      </trkpt>
      <trkpt lat="56.833301372507" lon="14.774813602921">
        <ele>166.4</ele>
        <time>2020-03-29T16:24:57Z</time>
      </trkpt>
      <trkpt lat="56.833355268124" lon="14.774940001973">
        <ele>166.8</ele>
        <time>2020-03-29T16:24:59Z</time>
      </trkpt>
      <trkpt lat="56.833650730099" lon="14.775506283137">
        <ele>167.2</ele>
        <time>2020-03-29T16:25:08Z</time>
      </trkpt>
      <trkpt lat="56.833867905128" lon="14.775965108343">
        <ele>167</ele>
        <time>2020-03-29T16:25:14Z</time>
      </trkpt>
      <trkpt lat="56.834067394348" lon="14.776737500428">
        <ele>166.4</ele>
        <time>2020-03-29T16:25:21Z</time>
      </trkpt>
      <trkpt lat="56.834061694656" lon="14.776961297158">
        <ele>166.2</ele>
        <time>2020-03-29T16:25:23Z</time>
      </trkpt>
      <trkpt lat="56.833895313941" lon="14.777478628026">
        <ele>165.8</ele>
        <time>2020-03-29T16:25:28Z</time>
      </trkpt>
      <trkpt lat="56.833647209701" lon="14.778420837405">
        <ele>165.4</ele>
        <time>2020-03-29T16:25:37Z</time>
      </trkpt>
      <trkpt lat="56.833617202499" lon="14.778621751548">
        <ele>165.6</ele>
        <time>2020-03-29T16:25:39Z</time>
      </trkpt>
      <trkpt lat="56.833585854193" lon="14.779668567039">
        <ele>165.2</ele>
        <time>2020-03-29T16:25:48Z</time>
      </trkpt>
      <trkpt lat="56.833540675752" lon="14.779871660476">
        <ele>164.8</ele>
        <time>2020-03-29T16:25:50Z</time>
      </trkpt>
      <trkpt lat="56.83350563941" lon="14.779957742589">
        <ele>164.6</ele>
        <time>2020-03-29T16:25:51Z</time>
      </trkpt>
      <trkpt lat="56.833427101007" lon="14.780084057822">
        <ele>164.4</ele>
        <time>2020-03-29T16:25:53Z</time>
      </trkpt>
      <trkpt lat="56.833325680017" lon="14.780108449151">
        <ele>164.2</ele>
        <time>2020-03-29T16:25:55Z</time>
      </trkpt>
      <trkpt lat="56.833221995914" lon="14.780095205749">
        <ele>164</ele>
        <time>2020-03-29T16:25:57Z</time>
      </trkpt>
      <trkpt lat="56.832665437754" lon="14.780159830198">
        <ele>164.6</ele>
        <time>2020-03-29T16:26:11Z</time>
      </trkpt>
      <trkpt lat="56.832100497694" lon="14.780389578077">
        <ele>165.6</ele>
        <time>2020-03-29T16:26:22Z</time>
      </trkpt>
      <trkpt lat="56.832040567109" lon="14.780445736807">
        <ele>165.6</ele>
        <time>2020-03-29T16:26:23Z</time>
      </trkpt>
      <trkpt lat="56.831568330863" lon="14.780328641664">
        <ele>165.8</ele>
        <time>2020-03-29T16:26:32Z</time>
      </trkpt>
      <trkpt lat="56.831315532759" lon="14.779975847493">
        <ele>166.2</ele>
        <time>2020-03-29T16:26:36Z</time>
      </trkpt>
      <trkpt lat="56.831196761236" lon="14.779866212241">
        <ele>166.2</ele>
        <time>2020-03-29T16:26:38Z</time>
      </trkpt>
      <trkpt lat="56.830696697082" lon="14.779656329465">
        <ele>166.2</ele>
        <time>2020-03-29T16:26:48Z</time>
      </trkpt>
      <trkpt lat="56.830460746597" lon="14.779868642992">
        <ele>166.8</ele>
        <time>2020-03-29T16:26:54Z</time>
      </trkpt>
      <trkpt lat="56.83000703435" lon="14.780504410107">
        <ele>167.4</ele>
        <time>2020-03-29T16:27:06Z</time>
      </trkpt>
      <trkpt lat="56.829860686376" lon="14.780746563198">
        <ele>167.2</ele>
        <time>2020-03-29T16:27:10Z</time>
      </trkpt>
      <trkpt lat="56.829347295001" lon="14.781167334578">
        <ele>167.6</ele>
        <time>2020-03-29T16:27:22Z</time>
      </trkpt>
      <trkpt lat="56.82915040417" lon="14.781365482694">
        <ele>167.8</ele>
        <time>2020-03-29T16:27:27Z</time>
      </trkpt>
      <trkpt lat="56.828837675481" lon="14.781721126711">
        <ele>168.8</ele>
        <time>2020-03-29T16:27:36Z</time>
      </trkpt>
      <trkpt lat="56.828343394838" lon="14.782270560256">
        <ele>169.6</ele>
        <time>2020-03-29T16:27:46Z</time>
      </trkpt>
      <trkpt lat="56.828277596923" lon="14.782410621805">
        <ele>170</ele>
        <time>2020-03-29T16:27:48Z</time>
      </trkpt>
      <trkpt lat="56.8278151675" lon="14.783019147745">
        <ele>171</ele>
        <time>2020-03-29T16:28:02Z</time>
      </trkpt>
      <trkpt lat="56.827779209149" lon="14.783044963997">
        <ele>171.2</ele>
        <time>2020-03-29T16:28:03Z</time>
      </trkpt>
      <trkpt lat="56.827475449093" lon="14.783390717372">
        <ele>172.2</ele>
        <time>2020-03-29T16:28:10Z</time>
      </trkpt>
      <trkpt lat="56.827351061697" lon="14.783681904578">
        <ele>173.4</ele>
        <time>2020-03-29T16:28:15Z</time>
      </trkpt>
      <trkpt lat="56.827237906047" lon="14.783823642507">
        <ele>174.6</ele>
        <time>2020-03-29T16:28:19Z</time>
      </trkpt>
      <trkpt lat="56.827099856154" lon="14.783989520308">
        <ele>175.8</ele>
        <time>2020-03-29T16:28:23Z</time>
      </trkpt>
      <trkpt lat="56.826858038339" lon="14.78427433727">
        <ele>176.8</ele>
        <time>2020-03-29T16:28:29Z</time>
      </trkpt>
      <trkpt lat="56.826751085295" lon="14.784598465343">
        <ele>177.8</ele>
        <time>2020-03-29T16:28:34Z</time>
      </trkpt>
      <trkpt lat="56.826632732867" lon="14.784729725897">
        <ele>178.8</ele>
        <time>2020-03-29T16:28:38Z</time>
      </trkpt>
      <trkpt lat="56.826514799534" lon="14.784872469654">
        <ele>180</ele>
        <time>2020-03-29T16:28:42Z</time>
      </trkpt>
      <trkpt lat="56.826289326424" lon="14.785116047668">
        <ele>181</ele>
        <time>2020-03-29T16:28:49Z</time>
      </trkpt>
      <trkpt lat="56.825892611097" lon="14.785557103246">
        <ele>181</ele>
        <time>2020-03-29T16:29:01Z</time>
      </trkpt>
      <trkpt lat="56.825839888946" lon="14.785974354228">
        <ele>180.4</ele>
        <time>2020-03-29T16:29:08Z</time>
      </trkpt>
      <trkpt lat="56.825853551443" lon="14.786050294242">
        <ele>180</ele>
        <time>2020-03-29T16:29:09Z</time>
      </trkpt>
      <trkpt lat="56.826086149168" lon="14.786561003409">
        <ele>179.2</ele>
        <time>2020-03-29T16:29:17Z</time>
      </trkpt>
      <trkpt lat="56.826345652792" lon="14.786914971046">
        <ele>181</ele>
        <time>2020-03-29T16:29:26Z</time>
      </trkpt>
      <trkpt lat="56.826480601382" lon="14.787187634253">
        <ele>179.8</ele>
        <time>2020-03-29T16:29:31Z</time>
      </trkpt>
      <trkpt lat="56.826645557174" lon="14.787521736787">
        <ele>178.8</ele>
        <time>2020-03-29T16:29:37Z</time>
      </trkpt>
      <trkpt lat="56.826755192426" lon="14.787657942662">
        <ele>177.6</ele>
        <time>2020-03-29T16:29:40Z</time>
      </trkpt>
      <trkpt lat="56.826853428294" lon="14.787799848229">
        <ele>177.6</ele>
        <time>2020-03-29T16:29:43Z</time>
      </trkpt>
      <trkpt lat="56.826775560443" lon="14.788620520058">
        <ele>177</ele>
        <time>2020-03-29T16:29:55Z</time>
      </trkpt>
      <trkpt lat="56.826904474065" lon="14.788765443109">
        <ele>176.6</ele>
        <time>2020-03-29T16:30:00Z</time>
      </trkpt>
      <trkpt lat="56.827019306095" lon="14.789017570661">
        <ele>175.6</ele>
        <time>2020-03-29T16:30:05Z</time>
      </trkpt>
      <trkpt lat="56.827026765986" lon="14.789814186437">
        <ele>176.8</ele>
        <time>2020-03-29T16:30:18Z</time>
      </trkpt>
      <trkpt lat="56.827022994131" lon="14.790030942371">
        <ele>177.4</ele>
        <time>2020-03-29T16:30:21Z</time>
      </trkpt>
      <trkpt lat="56.826639941301" lon="14.79073342941">
        <ele>177</ele>
        <time>2020-03-29T16:30:34Z</time>
      </trkpt>
      <trkpt lat="56.826593421756" lon="14.790777099109">
        <ele>177.2</ele>
        <time>2020-03-29T16:30:35Z</time>
      </trkpt>
      <trkpt lat="56.826490408205" lon="14.790852284752">
        <ele>177.6</ele>
        <time>2020-03-29T16:30:37Z</time>
      </trkpt>
      <trkpt lat="56.82607759963" lon="14.791066777573">
        <ele>175.8</ele>
        <time>2020-03-29T16:30:47Z</time>
      </trkpt>
      <trkpt lat="56.825963019057" lon="14.791202396715">
        <ele>176.2</ele>
        <time>2020-03-29T16:30:50Z</time>
      </trkpt>
      <trkpt lat="56.825883893921" lon="14.791332064708">
        <ele>176.2</ele>
        <time>2020-03-29T16:30:52Z</time>
      </trkpt>
      <trkpt lat="56.825673089136" lon="14.791681757576">
        <ele>174.4</ele>
        <time>2020-03-29T16:30:57Z</time>
      </trkpt>
      <trkpt lat="56.82558390572" lon="14.791799690909">
        <ele>173.2</ele>
        <time>2020-03-29T16:30:59Z</time>
      </trkpt>
      <trkpt lat="56.82524862972" lon="14.792189449259">
        <ele>173.2</ele>
        <time>2020-03-29T16:31:05Z</time>
      </trkpt>
      <trkpt lat="56.825003123869" lon="14.792594378848">
        <ele>172</ele>
        <time>2020-03-29T16:31:10Z</time>
      </trkpt>
      <trkpt lat="56.82490078087" lon="14.792721699909">
        <ele>171.8</ele>
        <time>2020-03-29T16:31:12Z</time>
      </trkpt>
      <trkpt lat="56.824711014654" lon="14.792974162737">
        <ele>172.2</ele>
        <time>2020-03-29T16:31:16Z</time>
      </trkpt>
      <trkpt lat="56.82452275718" lon="14.793353778988">
        <ele>172.2</ele>
        <time>2020-03-29T16:31:21Z</time>
      </trkpt>
      <trkpt lat="56.824399040336" lon="14.793759211491">
        <ele>171.8</ele>
        <time>2020-03-29T16:31:25Z</time>
      </trkpt>
      <trkpt lat="56.824294937138" lon="14.794139414475">
        <ele>170.8</ele>
        <time>2020-03-29T16:31:28Z</time>
      </trkpt>
      <trkpt lat="56.824191085397" lon="14.794673173867">
        <ele>169.8</ele>
        <time>2020-03-29T16:31:32Z</time>
      </trkpt>
      <trkpt lat="56.824165939697" lon="14.794944412151">
        <ele>169.8</ele>
        <time>2020-03-29T16:31:34Z</time>
      </trkpt>
      <trkpt lat="56.824141129273" lon="14.795315059769">
        <ele>169.6</ele>
        <time>2020-03-29T16:31:37Z</time>
      </trkpt>
      <trkpt lat="56.824092514253" lon="14.796043782155">
        <ele>168.8</ele>
        <time>2020-03-29T16:31:43Z</time>
      </trkpt>
      <trkpt lat="56.824085054362" lon="14.796578798832">
        <ele>168.6</ele>
        <time>2020-03-29T16:31:48Z</time>
      </trkpt>
      <trkpt lat="56.824129562251" lon="14.79683042347">
        <ele>168.2</ele>
        <time>2020-03-29T16:31:51Z</time>
      </trkpt>
      <trkpt lat="56.824305246875" lon="14.797393603331">
        <ele>167.6</ele>
        <time>2020-03-29T16:31:58Z</time>
      </trkpt>
      <trkpt lat="56.824454947609" lon="14.797980084874">
        <ele>169</ele>
        <time>2020-03-29T16:32:07Z</time>
      </trkpt>
      <trkpt lat="56.824786116478" lon="14.798411417448">
        <ele>170.2</ele>
        <time>2020-03-29T16:32:18Z</time>
      </trkpt>
      <trkpt lat="56.824821655734" lon="14.798530943342">
        <ele>170.2</ele>
        <time>2020-03-29T16:32:20Z</time>
      </trkpt>
      <trkpt lat="56.824688802619" lon="14.799501148267">
        <ele>170.6</ele>
        <time>2020-03-29T16:32:33Z</time>
      </trkpt>
      <trkpt lat="56.824664159833" lon="14.799809769825">
        <ele>170.6</ele>
        <time>2020-03-29T16:32:36Z</time>
      </trkpt>
      <trkpt lat="56.824598948651" lon="14.800102130497">
        <ele>171.4</ele>
        <time>2020-03-29T16:32:40Z</time>
      </trkpt>
      <trkpt lat="56.824510938701" lon="14.800387618011">
        <ele>172.4</ele>
        <time>2020-03-29T16:32:44Z</time>
      </trkpt>
      <trkpt lat="56.824200640763" lon="14.801206697279">
        <ele>173.4</ele>
        <time>2020-03-29T16:32:56Z</time>
      </trkpt>
      <trkpt lat="56.823976844033" lon="14.802149661029">
        <ele>173</ele>
        <time>2020-03-29T16:33:07Z</time>
      </trkpt>
      <trkpt lat="56.823987572865" lon="14.80223507259">
        <ele>173</ele>
        <time>2020-03-29T16:33:08Z</time>
      </trkpt>
      <trkpt lat="56.824509765235" lon="14.802473370007">
        <ele>173.2</ele>
        <time>2020-03-29T16:33:20Z</time>
      </trkpt>
      <trkpt lat="56.824740099847" lon="14.802608318597">
        <ele>173.2</ele>
        <time>2020-03-29T16:33:24Z</time>
      </trkpt>
      <trkpt lat="56.825251731023" lon="14.803025988674">
        <ele>172.6</ele>
        <time>2020-03-29T16:33:34Z</time>
      </trkpt>
      <trkpt lat="56.82531568492" lon="14.803094301159">
        <ele>172.4</ele>
        <time>2020-03-29T16:33:36Z</time>
      </trkpt>
      <trkpt lat="56.825320378784" lon="14.803139731057">
        <ele>172.4</ele>
        <time>2020-03-29T16:33:37Z</time>
      </trkpt>
      <trkpt lat="56.825419704299" lon="14.804105493575">
        <ele>172</ele>
        <time>2020-03-29T16:33:50Z</time>
      </trkpt>
      <trkpt lat="56.825163721073" lon="14.804626596298">
        <ele>173.4</ele>
        <time>2020-03-29T16:34:01Z</time>
      </trkpt>
      <trkpt lat="56.824818470612" lon="14.805269571847">
        <ele>172.4</ele>
        <time>2020-03-29T16:34:11Z</time>
      </trkpt>
      <trkpt lat="56.824552848201" lon="14.805724038465">
        <ele>173.4</ele>
        <time>2020-03-29T16:34:20Z</time>
      </trkpt>
      <trkpt lat="56.825030029768" lon="14.806273891105">
        <ele>172.8</ele>
        <time>2020-03-29T16:34:32Z</time>
      </trkpt>
      <trkpt lat="56.825119464641" lon="14.806357877743">
        <ele>172.8</ele>
        <time>2020-03-29T16:34:34Z</time>
      </trkpt>
      <trkpt lat="56.825257179258" lon="14.806466339529">
        <ele>172.2</ele>
        <time>2020-03-29T16:34:37Z</time>
      </trkpt>
      <trkpt lat="56.825349128701" lon="14.80651403254">
        <ele>172</ele>
        <time>2020-03-29T16:34:39Z</time>
      </trkpt>
      <trkpt lat="56.825659259001" lon="14.806574968953">
        <ele>171.6</ele>
        <time>2020-03-29T16:34:45Z</time>
      </trkpt>
      <trkpt lat="56.825906944146" lon="14.806701451824">
        <ele>172.2</ele>
        <time>2020-03-29T16:34:49Z</time>
      </trkpt>
      <trkpt lat="56.826106601004" lon="14.80696246419">
        <ele>172.2</ele>
        <time>2020-03-29T16:34:53Z</time>
      </trkpt>
      <trkpt lat="56.82654195689" lon="14.807607619033">
        <ele>171.6</ele>
        <time>2020-03-29T16:35:03Z</time>
      </trkpt>
      <trkpt lat="56.826688975416" lon="14.807721109959">
        <ele>171.2</ele>
        <time>2020-03-29T16:35:06Z</time>
      </trkpt>
      <trkpt lat="56.826824259282" lon="14.807767294228">
        <ele>171</ele>
        <time>2020-03-29T16:35:08Z</time>
      </trkpt>
      <trkpt lat="56.827139251084" lon="14.807827895365">
        <ele>170.6</ele>
        <time>2020-03-29T16:35:13Z</time>
      </trkpt>
      <trkpt lat="56.82730973893" lon="14.807906769044">
        <ele>170.4</ele>
        <time>2020-03-29T16:35:16Z</time>
      </trkpt>
      <trkpt lat="56.827425157693" lon="14.80798673237">
        <ele>170.6</ele>
        <time>2020-03-29T16:35:18Z</time>
      </trkpt>
      <trkpt lat="56.82757125421" lon="14.808181443907">
        <ele>170.6</ele>
        <time>2020-03-29T16:35:21Z</time>
      </trkpt>
      <trkpt lat="56.827845090883" lon="14.808675389274">
        <ele>170.4</ele>
        <time>2020-03-29T16:35:28Z</time>
      </trkpt>
      <trkpt lat="56.827974339781" lon="14.808894743597">
        <ele>170.2</ele>
        <time>2020-03-29T16:35:31Z</time>
      </trkpt>
      <trkpt lat="56.82843961905" lon="14.809397489959">
        <ele>170.8</ele>
        <time>2020-03-29T16:35:41Z</time>
      </trkpt>
      <trkpt lat="56.828579093866" lon="14.809478459113">
        <ele>170.8</ele>
        <time>2020-03-29T16:35:44Z</time>
      </trkpt>
      <trkpt lat="56.828657799907" lon="14.809454486879">
        <ele>171</ele>
        <time>2020-03-29T16:35:46Z</time>
      </trkpt>
      <trkpt lat="56.828726950582" lon="14.809364800549">
        <ele>171.2</ele>
        <time>2020-03-29T16:35:48Z</time>
      </trkpt>
      <trkpt lat="56.829085612083" lon="14.808555276647">
        <ele>171.6</ele>
        <time>2020-03-29T16:35:58Z</time>
      </trkpt>
      <trkpt lat="56.829271438806" lon="14.808225029787">
        <ele>171.4</ele>
        <time>2020-03-29T16:36:02Z</time>
      </trkpt>
      <trkpt lat="56.829656754749" lon="14.807411482573">
        <ele>171.4</ele>
        <time>2020-03-29T16:36:12Z</time>
      </trkpt>
      <trkpt lat="56.829877366357" lon="14.80704376862">
        <ele>171.4</ele>
        <time>2020-03-29T16:36:17Z</time>
      </trkpt>
      <trkpt lat="56.830366785498" lon="14.806542614819">
        <ele>171.8</ele>
        <time>2020-03-29T16:36:27Z</time>
      </trkpt>
      <trkpt lat="56.830516402413" lon="14.806431722282">
        <ele>171.8</ele>
        <time>2020-03-29T16:36:30Z</time>
      </trkpt>
      <trkpt lat="56.830725949913" lon="14.806260480065">
        <ele>171.6</ele>
        <time>2020-03-29T16:36:34Z</time>
      </trkpt>
      <trkpt lat="56.83081253494" lon="14.806105750191">
        <ele>171.4</ele>
        <time>2020-03-29T16:36:36Z</time>
      </trkpt>
      <trkpt lat="56.831176477038" lon="14.805270745313">
        <ele>171.2</ele>
        <time>2020-03-29T16:36:45Z</time>
      </trkpt>
      <trkpt lat="56.83156439137" lon="14.804542777298">
        <ele>171</ele>
        <time>2020-03-29T16:36:54Z</time>
      </trkpt>
      <trkpt lat="56.83192481307" lon="14.803780024398">
        <ele>171</ele>
        <time>2020-03-29T16:37:04Z</time>
      </trkpt>
      <trkpt lat="56.832253215912" lon="14.803174013028">
        <ele>170.6</ele>
        <time>2020-03-29T16:37:11Z</time>
      </trkpt>
      <trkpt lat="56.832494027899" lon="14.802251417295">
        <ele>170.2</ele>
        <time>2020-03-29T16:37:20Z</time>
      </trkpt>
      <trkpt lat="56.832609111386" lon="14.801825784413">
        <ele>170</ele>
        <time>2020-03-29T16:37:24Z</time>
      </trkpt>
      <trkpt lat="56.832867525363" lon="14.800872091831">
        <ele>170.2</ele>
        <time>2020-03-29T16:37:34Z</time>
      </trkpt>
      <trkpt lat="56.832879008566" lon="14.800775364705">
        <ele>170.2</ele>
        <time>2020-03-29T16:37:35Z</time>
      </trkpt>
      <trkpt lat="56.833008760378" lon="14.799721676056">
        <ele>171</ele>
        <time>2020-03-29T16:37:45Z</time>
      </trkpt>
      <trkpt lat="56.833270778572" lon="14.79880352273">
        <ele>169.6</ele>
        <time>2020-03-29T16:37:54Z</time>
      </trkpt>
      <trkpt lat="56.833424251161" lon="14.798110591057">
        <ele>169</ele>
        <time>2020-03-29T16:38:01Z</time>
      </trkpt>
      <trkpt lat="56.833439841495" lon="14.797778500179">
        <ele>169</ele>
        <time>2020-03-29T16:38:04Z</time>
      </trkpt>
      <trkpt lat="56.833444283902" lon="14.797549087576">
        <ele>168.8</ele>
        <time>2020-03-29T16:38:06Z</time>
      </trkpt>
      <trkpt lat="56.833411426854" lon="14.797343060474">
        <ele>168.6</ele>
        <time>2020-03-29T16:38:08Z</time>
      </trkpt>
      <trkpt lat="56.833342779093" lon="14.797195203758">
        <ele>167.8</ele>
        <time>2020-03-29T16:38:10Z</time>
      </trkpt>
      <trkpt lat="56.832799799611" lon="14.796682315297">
        <ele>167</ele>
        <time>2020-03-29T16:38:19Z</time>
      </trkpt>
      <trkpt lat="56.832511126975" lon="14.796336226646">
        <ele>166.8</ele>
        <time>2020-03-29T16:38:24Z</time>
      </trkpt>
      <trkpt lat="56.832453040408" lon="14.796272859482">
        <ele>166.8</ele>
        <time>2020-03-29T16:38:25Z</time>
      </trkpt>
      <trkpt lat="56.832014331762" lon="14.795554530652">
        <ele>167.2</ele>
        <time>2020-03-29T16:38:34Z</time>
      </trkpt>
      <trkpt lat="56.831748290256" lon="14.79522612781">
        <ele>168</ele>
        <time>2020-03-29T16:38:41Z</time>
      </trkpt>
      <trkpt lat="56.831648126551" lon="14.795112217789">
        <ele>168.2</ele>
        <time>2020-03-29T16:38:44Z</time>
      </trkpt>
      <trkpt lat="56.831467496606" lon="14.794904095212">
        <ele>169</ele>
        <time>2020-03-29T16:38:48Z</time>
      </trkpt>
      <trkpt lat="56.831409410039" lon="14.794807284267">
        <ele>169.2</ele>
        <time>2020-03-29T16:38:50Z</time>
      </trkpt>
      <trkpt lat="56.831227103714" lon="14.794019385667">
        <ele>169.6</ele>
        <time>2020-03-29T16:39:00Z</time>
      </trkpt>
      <trkpt lat="56.831223583316" lon="14.793650665886">
        <ele>170.2</ele>
        <time>2020-03-29T16:39:05Z</time>
      </trkpt>
      <trkpt lat="56.831189385164" lon="14.793226877022">
        <ele>171.2</ele>
        <time>2020-03-29T16:39:13Z</time>
      </trkpt>
      <trkpt lat="56.831173543373" lon="14.793193349422">
        <ele>172.2</ele>
        <time>2020-03-29T16:39:15Z</time>
      </trkpt>
      <trkpt lat="56.831162395446" lon="14.793136101045">
        <ele>172.6</ele>
        <time>2020-03-29T16:39:16Z</time>
      </trkpt>
      <trkpt lat="56.831069607813" lon="14.792381897683">
        <ele>171.6</ele>
        <time>2020-03-29T16:39:28Z</time>
      </trkpt>
      <trkpt lat="56.830921583459" lon="14.79175350664">
        <ele>172.2</ele>
        <time>2020-03-29T16:39:37Z</time>
      </trkpt>
      <trkpt lat="56.830833070595" lon="14.790786067742">
        <ele>172.4</ele>
        <time>2020-03-29T16:39:50Z</time>
      </trkpt>
      <trkpt lat="56.830821335935" lon="14.790705517683">
        <ele>172.6</ele>
        <time>2020-03-29T16:39:51Z</time>
      </trkpt>
      <trkpt lat="56.830813540768" lon="14.790372672434">
        <ele>173.8</ele>
        <time>2020-03-29T16:39:57Z</time>
      </trkpt>
      <trkpt lat="56.830756292391" lon="14.790171590653">
        <ele>174.8</ele>
        <time>2020-03-29T16:40:02Z</time>
      </trkpt>
      <trkpt lat="56.830732403976" lon="14.790152479921">
        <ele>174.8</ele>
        <time>2020-03-29T16:40:03Z</time>
      </trkpt>
      <trkpt lat="56.830637101773" lon="14.790084251255">
        <ele>176.2</ele>
        <time>2020-03-29T16:40:07Z</time>
      </trkpt>
      <trkpt lat="56.830585972183" lon="14.790013005105">
        <ele>177.4</ele>
        <time>2020-03-29T16:40:10Z</time>
      </trkpt>
      <trkpt lat="56.830539285" lon="14.789954918538">
        <ele>178.8</ele>
        <time>2020-03-29T16:40:13Z</time>
      </trkpt>
      <trkpt lat="56.830503997201" lon="14.789886103139">
        <ele>180</ele>
        <time>2020-03-29T16:40:16Z</time>
      </trkpt>
      <trkpt lat="56.830483377727" lon="14.789791471488">
        <ele>181.2</ele>
        <time>2020-03-29T16:40:20Z</time>
      </trkpt>
      <trkpt lat="56.830437361096" lon="14.789767080159">
        <ele>181.6</ele>
        <time>2020-03-29T16:40:38Z</time>
      </trkpt>
      <trkpt lat="56.830424872065" lon="14.789718046044">
        <ele>181.6</ele>
        <time>2020-03-29T16:40:41Z</time>
      </trkpt>
      <trkpt lat="56.830448173747" lon="14.789670353033">
        <ele>182</ele>
        <time>2020-03-29T16:40:44Z</time>
      </trkpt>
      <trkpt lat="56.830448592842" lon="14.78964629698">
        <ele>182.4</ele>
        <time>2020-03-29T16:40:46Z</time>
      </trkpt>
      <trkpt lat="56.830438031648" lon="14.78962198947">
        <ele>182.6</ele>
        <time>2020-03-29T16:40:48Z</time>
      </trkpt>
      <trkpt lat="56.830409700826" lon="14.789565327826">
        <ele>183.6</ele>
        <time>2020-03-29T16:40:52Z</time>
      </trkpt>
      <trkpt lat="56.830403330582" lon="14.789549402216">
        <ele>183.8</ele>
        <time>2020-03-29T16:40:53Z</time>
      </trkpt>
      <trkpt lat="56.830386315325" lon="14.789502631214">
        <ele>184.2</ele>
        <time>2020-03-29T16:40:55Z</time>
      </trkpt>
      <trkpt lat="56.830326971473" lon="14.789244133418">
        <ele>184.6</ele>
        <time>2020-03-29T16:41:01Z</time>
      </trkpt>
      <trkpt lat="56.830316410279" lon="14.78892880634">
        <ele>184.8</ele>
        <time>2020-03-29T16:41:06Z</time>
      </trkpt>
      <trkpt lat="56.830231250175" lon="14.788413822404">
        <ele>185.8</ele>
        <time>2020-03-29T16:41:15Z</time>
      </trkpt>
      <trkpt lat="56.830180288223" lon="14.788177369005">
        <ele>185.8</ele>
        <time>2020-03-29T16:41:18Z</time>
      </trkpt>
      <trkpt lat="56.830038298837" lon="14.787721561283">
        <ele>184.6</ele>
        <time>2020-03-29T16:41:25Z</time>
      </trkpt>
      <trkpt lat="56.829845850413" lon="14.787614105325">
        <ele>185</ele>
        <time>2020-03-29T16:41:31Z</time>
      </trkpt>
      <trkpt lat="56.829773263159" lon="14.787532717076">
        <ele>185.2</ele>
        <time>2020-03-29T16:41:33Z</time>
      </trkpt>
      <trkpt lat="56.82965667093" lon="14.787367928922">
        <ele>183.6</ele>
        <time>2020-03-29T16:41:36Z</time>
      </trkpt>
      <trkpt lat="56.829615934896" lon="14.787248822123">
        <ele>182.2</ele>
        <time>2020-03-29T16:41:38Z</time>
      </trkpt>
      <trkpt lat="56.829570002084" lon="14.787120998148">
        <ele>180.6</ele>
        <time>2020-03-29T16:41:40Z</time>
      </trkpt>
      <trkpt lat="56.829519291589" lon="14.787094678982">
        <ele>179.4</ele>
        <time>2020-03-29T16:41:42Z</time>
      </trkpt>
      <trkpt lat="56.829379397678" lon="14.786957048184">
        <ele>178.8</ele>
        <time>2020-03-29T16:41:46Z</time>
      </trkpt>
      <trkpt lat="56.829393143994" lon="14.786751104901">
        <ele>178.4</ele>
        <time>2020-03-29T16:41:49Z</time>
      </trkpt>
      <trkpt lat="56.829407309405" lon="14.786578773037">
        <ele>178</ele>
        <time>2020-03-29T16:41:51Z</time>
      </trkpt>
      <trkpt lat="56.829452487846" lon="14.786256740439">
        <ele>177.2</ele>
        <time>2020-03-29T16:41:54Z</time>
      </trkpt>
      <trkpt lat="56.829563715659" lon="14.785969744183">
        <ele>177</ele>
        <time>2020-03-29T16:41:57Z</time>
      </trkpt>
      <trkpt lat="56.829862698032" lon="14.785076820376">
        <ele>176.4</ele>
        <time>2020-03-29T16:42:07Z</time>
      </trkpt>
      <trkpt lat="56.829910055767" lon="14.784989816254">
        <ele>176</ele>
        <time>2020-03-29T16:42:08Z</time>
      </trkpt>
      <trkpt lat="56.830032515326" lon="14.784820920969">
        <ele>175</ele>
        <time>2020-03-29T16:42:10Z</time>
      </trkpt>
      <trkpt lat="56.830171487228" lon="14.78466661019">
        <ele>173.8</ele>
        <time>2020-03-29T16:42:12Z</time>
      </trkpt>
      <trkpt lat="56.830307357827" lon="14.784520094578">
        <ele>172.6</ele>
        <time>2020-03-29T16:42:14Z</time>
      </trkpt>
      <trkpt lat="56.830602400707" lon="14.784232846865">
        <ele>171.6</ele>
        <time>2020-03-29T16:42:19Z</time>
      </trkpt>
      <trkpt lat="56.830950081919" lon="14.783932691026">
        <ele>170.6</ele>
        <time>2020-03-29T16:42:25Z</time>
      </trkpt>
      <trkpt lat="56.831156779573" lon="14.783789695812">
        <ele>170.6</ele>
        <time>2020-03-29T16:42:29Z</time>
      </trkpt>
      <trkpt lat="56.831723982746" lon="14.783368756794">
        <ele>169.8</ele>
        <time>2020-03-29T16:42:37Z</time>
      </trkpt>
      <trkpt lat="56.832235111008" lon="14.783014956795">
        <ele>170.4</ele>
        <time>2020-03-29T16:42:45Z</time>
      </trkpt>
      <trkpt lat="56.832769121857" lon="14.7826876436">
        <ele>170.8</ele>
        <time>2020-03-29T16:42:52Z</time>
      </trkpt>
      <trkpt lat="56.833268515459" lon="14.782298136707">
        <ele>169.4</ele>
        <time>2020-03-29T16:42:59Z</time>
      </trkpt>
      <trkpt lat="56.833801185204" lon="14.781896978973">
        <ele>168.8</ele>
        <time>2020-03-29T16:43:07Z</time>
      </trkpt>
      <trkpt lat="56.833855248459" lon="14.781844759736">
        <ele>168.8</ele>
        <time>2020-03-29T16:43:08Z</time>
      </trkpt>
      <trkpt lat="56.833960357485" lon="14.781675864451">
        <ele>168.8</ele>
        <time>2020-03-29T16:43:10Z</time>
      </trkpt>
      <trkpt lat="56.834035124033" lon="14.781442177079">
        <ele>168.4</ele>
        <time>2020-03-29T16:43:12Z</time>
      </trkpt>
      <trkpt lat="56.834067645805" lon="14.781310916525">
        <ele>168</ele>
        <time>2020-03-29T16:43:13Z</time>
      </trkpt>
      <trkpt lat="56.834121792879" lon="14.780936245595">
        <ele>167.2</ele>
        <time>2020-03-29T16:43:16Z</time>
      </trkpt>
      <trkpt lat="56.834130845331" lon="14.780819485728">
        <ele>166.8</ele>
        <time>2020-03-29T16:43:17Z</time>
      </trkpt>
      <trkpt lat="56.834309715077" lon="14.779803264172">
        <ele>167.6</ele>
        <time>2020-03-29T16:43:26Z</time>
      </trkpt>
      <trkpt lat="56.834342404487" lon="14.779591118283">
        <ele>168</ele>
        <time>2020-03-29T16:43:28Z</time>
      </trkpt>
      <trkpt lat="56.834404514366" lon="14.779091640862">
        <ele>168.4</ele>
        <time>2020-03-29T16:43:33Z</time>
      </trkpt>
      <trkpt lat="56.834417673949" lon="14.778768686255">
        <ele>168.4</ele>
        <time>2020-03-29T16:43:36Z</time>
      </trkpt>
      <trkpt lat="56.834482549855" lon="14.778566347189">
        <ele>168.2</ele>
        <time>2020-03-29T16:43:38Z</time>
      </trkpt>
      <trkpt lat="56.834885551607" lon="14.778032420159">
        <ele>167.2</ele>
        <time>2020-03-29T16:43:46Z</time>
      </trkpt>
      <trkpt lat="56.835204985816" lon="14.777374860104">
        <ele>167</ele>
        <time>2020-03-29T16:43:55Z</time>
      </trkpt>
      <trkpt lat="56.835245889488" lon="14.777323395238">
        <ele>167</ele>
        <time>2020-03-29T16:43:56Z</time>
      </trkpt>
      <trkpt lat="56.835334905266" lon="14.777265811585">
        <ele>166.8</ele>
        <time>2020-03-29T16:43:58Z</time>
      </trkpt>
      <trkpt lat="56.835568844095" lon="14.777248712509">
        <ele>166.2</ele>
        <time>2020-03-29T16:44:01Z</time>
      </trkpt>
      <trkpt lat="56.835745366909" lon="14.777279557901">
        <ele>165.8</ele>
        <time>2020-03-29T16:44:03Z</time>
      </trkpt>
      <trkpt lat="56.836121546581" lon="14.777550041814">
        <ele>165.4</ele>
        <time>2020-03-29T16:44:09Z</time>
      </trkpt>
      <trkpt lat="56.836342744922" lon="14.777268996707">
        <ele>164.8</ele>
        <time>2020-03-29T16:44:14Z</time>
      </trkpt>
      <trkpt lat="56.836501498108" lon="14.777009493083">
        <ele>164.4</ele>
        <time>2020-03-29T16:44:18Z</time>
      </trkpt>
      <trkpt lat="56.836591771171" lon="14.776933301612">
        <ele>164.2</ele>
        <time>2020-03-29T16:44:20Z</time>
      </trkpt>
      <trkpt lat="56.836759241533" lon="14.776861049634">
        <ele>163.8</ele>
        <time>2020-03-29T16:44:23Z</time>
      </trkpt>
      <trkpt lat="56.836799642291" lon="14.776826683844">
        <ele>163.6</ele>
        <time>2020-03-29T16:44:24Z</time>
      </trkpt>
      <trkpt lat="56.836834846271" lon="14.776786786">
        <ele>163.2</ele>
        <time>2020-03-29T16:44:25Z</time>
      </trkpt>
      <trkpt lat="56.837011201447" lon="14.776497358993">
        <ele>162.8</ele>
        <time>2020-03-29T16:44:31Z</time>
      </trkpt>
      <trkpt lat="56.837068533643" lon="14.776365930801">
        <ele>162.8</ele>
        <time>2020-03-29T16:44:33Z</time>
      </trkpt>
      <trkpt lat="56.83714757496" lon="14.776225953071">
        <ele>162.8</ele>
        <time>2020-03-29T16:44:36Z</time>
      </trkpt>
      <trkpt lat="56.837162913837" lon="14.77607180993">
        <ele>162.8</ele>
        <time>2020-03-29T16:44:38Z</time>
      </trkpt>
      <trkpt lat="56.837148496969" lon="14.775986146912">
        <ele>162.8</ele>
        <time>2020-03-29T16:44:39Z</time>
      </trkpt>
      <trkpt lat="56.837161069819" lon="14.775891012347">
        <ele>162.8</ele>
        <time>2020-03-29T16:44:40Z</time>
      </trkpt>
      <trkpt lat="56.837164087303" lon="14.775292879963">
        <ele>163.4</ele>
        <time>2020-03-29T16:44:46Z</time>
      </trkpt>
      <trkpt lat="56.837215719807" lon="14.775031532321">
        <ele>163.4</ele>
        <time>2020-03-29T16:44:48Z</time>
      </trkpt>
      <trkpt lat="56.837294928762" lon="14.774830618178">
        <ele>163.2</ele>
        <time>2020-03-29T16:44:50Z</time>
      </trkpt>
      <trkpt lat="56.837384698911" lon="14.774672954639">
        <ele>163.2</ele>
        <time>2020-03-29T16:44:52Z</time>
      </trkpt>
      <trkpt lat="56.837426943687" lon="14.77448092531">
        <ele>163</ele>
        <time>2020-03-29T16:44:54Z</time>
      </trkpt>
      <trkpt lat="56.837449574817" lon="14.774235838554">
        <ele>163.2</ele>
        <time>2020-03-29T16:44:56Z</time>
      </trkpt>
      <trkpt lat="56.83749207105" lon="14.773840799607">
        <ele>163.2</ele>
        <time>2020-03-29T16:44:59Z</time>
      </trkpt>
      <trkpt lat="56.837434906492" lon="14.772815860875">
        <ele>163.2</ele>
        <time>2020-03-29T16:45:08Z</time>
      </trkpt>
      <trkpt lat="56.83743339775" lon="14.772746794019">
        <ele>163.4</ele>
        <time>2020-03-29T16:45:09Z</time>
      </trkpt>
      <trkpt lat="56.837337592633" lon="14.772600110769">
        <ele>164</ele>
        <time>2020-03-29T16:45:12Z</time>
      </trkpt>
      <trkpt lat="56.837312614571" lon="14.772383438654">
        <ele>164.2</ele>
        <time>2020-03-29T16:45:14Z</time>
      </trkpt>
      <trkpt lat="56.837337424995" lon="14.771816151662">
        <ele>163.6</ele>
        <time>2020-03-29T16:45:21Z</time>
      </trkpt>
      <trkpt lat="56.837274057831" lon="14.771361517406">
        <ele>163.6</ele>
        <time>2020-03-29T16:45:27Z</time>
      </trkpt>
      <trkpt lat="56.83717104428" lon="14.77061267846">
        <ele>163</ele>
        <time>2020-03-29T16:45:34Z</time>
      </trkpt>
      <trkpt lat="56.837152268824" lon="14.770377901441">
        <ele>163</ele>
        <time>2020-03-29T16:45:36Z</time>
      </trkpt>
      <trkpt lat="56.837179007085" lon="14.770135915988">
        <ele>163</ele>
        <time>2020-03-29T16:45:38Z</time>
      </trkpt>
      <trkpt lat="56.837254192728" lon="14.769892924707">
        <ele>163</ele>
        <time>2020-03-29T16:45:40Z</time>
      </trkpt>
      <trkpt lat="56.837386291472" lon="14.769686981424">
        <ele>163.2</ele>
        <time>2020-03-29T16:45:43Z</time>
      </trkpt>
      <trkpt lat="56.837531298342" lon="14.769511883533">
        <ele>164</ele>
        <time>2020-03-29T16:45:47Z</time>
      </trkpt>
      <trkpt lat="56.837646884743" lon="14.769377102581">
        <ele>164.6</ele>
        <time>2020-03-29T16:45:50Z</time>
      </trkpt>
      <trkpt lat="56.837979478535" lon="14.768963791092">
        <ele>165.6</ele>
        <time>2020-03-29T16:45:59Z</time>
      </trkpt>
      <trkpt lat="56.838008899004" lon="14.768920037574">
        <ele>165.8</ele>
        <time>2020-03-29T16:46:00Z</time>
      </trkpt>
      <trkpt lat="56.838192881709" lon="14.768696408482">
        <ele>166.8</ele>
        <time>2020-03-29T16:46:05Z</time>
      </trkpt>
      <trkpt lat="56.838402513028" lon="14.768501780764">
        <ele>167.4</ele>
        <time>2020-03-29T16:46:10Z</time>
      </trkpt>
      <trkpt lat="56.838478788318" lon="14.768426511302">
        <ele>167.8</ele>
        <time>2020-03-29T16:46:12Z</time>
      </trkpt>
      <trkpt lat="56.838806772065" lon="14.76817186918">
        <ele>169.2</ele>
        <time>2020-03-29T16:46:21Z</time>
      </trkpt>
      <trkpt lat="56.838861254415" lon="14.768123086522">
        <ele>170.2</ele>
        <time>2020-03-29T16:46:23Z</time>
      </trkpt>
      <trkpt lat="56.838992095874" lon="14.767997693298">
        <ele>171.2</ele>
        <time>2020-03-29T16:46:28Z</time>
      </trkpt>
      <trkpt lat="56.839212288387" lon="14.76782234395">
        <ele>172.6</ele>
        <time>2020-03-29T16:46:35Z</time>
      </trkpt>
      <trkpt lat="56.839302477631" lon="14.767755540207">
        <ele>173.8</ele>
        <time>2020-03-29T16:46:38Z</time>
      </trkpt>
      <trkpt lat="56.83940649701" lon="14.767684545514">
        <ele>175.2</ele>
        <time>2020-03-29T16:46:41Z</time>
      </trkpt>
      <trkpt lat="56.839498278815" lon="14.767621345988">
        <ele>176.2</ele>
        <time>2020-03-29T16:46:44Z</time>
      </trkpt>
      <trkpt lat="56.839784017786" lon="14.767424874252">
        <ele>177.4</ele>
        <time>2020-03-29T16:46:53Z</time>
      </trkpt>
      <trkpt lat="56.840010245267" lon="14.767285650893">
        <ele>178.4</ele>
        <time>2020-03-29T16:46:59Z</time>
      </trkpt>
      <trkpt lat="56.840379551781" lon="14.767107619337">
        <ele>179.6</ele>
        <time>2020-03-29T16:47:10Z</time>
      </trkpt>
      <trkpt lat="56.840537969691" lon="14.766965462313">
        <ele>180.6</ele>
        <time>2020-03-29T16:47:15Z</time>
      </trkpt>
      <trkpt lat="56.840693789212" lon="14.766663210999">
        <ele>181.4</ele>
        <time>2020-03-29T16:47:20Z</time>
      </trkpt>
      <trkpt lat="56.840796132211" lon="14.766312512303">
        <ele>181.6</ele>
        <time>2020-03-29T16:47:24Z</time>
      </trkpt>
      <trkpt lat="56.840887411102" lon="14.76611746549">
        <ele>180.8</ele>
        <time>2020-03-29T16:47:26Z</time>
      </trkpt>
      <trkpt lat="56.841011966136" lon="14.765956700648">
        <ele>179.2</ele>
        <time>2020-03-29T16:47:28Z</time>
      </trkpt>
      <trkpt lat="56.841139454835" lon="14.765824685723">
        <ele>176.8</ele>
        <time>2020-03-29T16:47:30Z</time>
      </trkpt>
      <trkpt lat="56.841209276062" lon="14.765764671319">
        <ele>175.6</ele>
        <time>2020-03-29T16:47:31Z</time>
      </trkpt>
      <trkpt lat="56.841275828348" lon="14.765710188969">
        <ele>174.4</ele>
        <time>2020-03-29T16:47:32Z</time>
      </trkpt>
      <trkpt lat="56.841393174948" lon="14.765605499038">
        <ele>173.4</ele>
        <time>2020-03-29T16:47:34Z</time>
      </trkpt>
      <trkpt lat="56.84188083389" lon="14.765175591387">
        <ele>174.4</ele>
        <time>2020-03-29T16:47:43Z</time>
      </trkpt>
      <trkpt lat="56.8420560156" lon="14.76497333614">
        <ele>174.6</ele>
        <time>2020-03-29T16:47:46Z</time>
      </trkpt>
      <trkpt lat="56.842131285062" lon="14.764810894918">
        <ele>174.2</ele>
        <time>2020-03-29T16:47:48Z</time>
      </trkpt>
      <trkpt lat="56.84218006772" lon="14.764617692123">
        <ele>173.4</ele>
        <time>2020-03-29T16:47:50Z</time>
      </trkpt>
      <trkpt lat="56.842243602522" lon="14.764393057203">
        <ele>172</ele>
        <time>2020-03-29T16:47:52Z</time>
      </trkpt>
      <trkpt lat="56.842302024365" lon="14.764171523586">
        <ele>170</ele>
        <time>2020-03-29T16:47:54Z</time>
      </trkpt>
      <trkpt lat="56.842351980489" lon="14.764062977981">
        <ele>168.8</ele>
        <time>2020-03-29T16:47:55Z</time>
      </trkpt>
      <trkpt lat="56.842406043744" lon="14.763961808448">
        <ele>167.8</ele>
        <time>2020-03-29T16:47:56Z</time>
      </trkpt>
      <trkpt lat="56.842490449477" lon="14.763822836546">
        <ele>166.6</ele>
        <time>2020-03-29T16:47:57Z</time>
      </trkpt>
      <trkpt lat="56.842559935428" lon="14.763754943156">
        <ele>166</ele>
        <time>2020-03-29T16:47:58Z</time>
      </trkpt>
      <trkpt lat="56.842844081838" lon="14.76368252354">
        <ele>165.4</ele>
        <time>2020-03-29T16:48:00Z</time>
      </trkpt>
      <trkpt lat="56.843313132962" lon="14.763775646449">
        <ele>166.8</ele>
        <time>2020-03-29T16:48:05Z</time>
      </trkpt>
      <trkpt lat="56.84375670311" lon="14.763788806032">
        <ele>167.8</ele>
        <time>2020-03-29T16:48:11Z</time>
      </trkpt>
      <trkpt lat="56.844291803606" lon="14.763611445028">
        <ele>167.2</ele>
        <time>2020-03-29T16:48:19Z</time>
      </trkpt>
      <trkpt lat="56.844574022179" lon="14.763412123446">
        <ele>167.2</ele>
        <time>2020-03-29T16:48:24Z</time>
      </trkpt>
      <trkpt lat="56.844686339639" lon="14.763415560025">
        <ele>167.4</ele>
        <time>2020-03-29T16:48:26Z</time>
      </trkpt>
      <trkpt lat="56.844788179724" lon="14.763502647966">
        <ele>167.6</ele>
        <time>2020-03-29T16:48:28Z</time>
      </trkpt>
      <trkpt lat="56.844829334853" lon="14.763673806364">
        <ele>168</ele>
        <time>2020-03-29T16:48:30Z</time>
      </trkpt>
      <trkpt lat="56.844804775886" lon="14.764088039862">
        <ele>168.4</ele>
        <time>2020-03-29T16:48:34Z</time>
      </trkpt>
      <trkpt lat="56.844867137222" lon="14.764292474403">
        <ele>168.2</ele>
        <time>2020-03-29T16:48:36Z</time>
      </trkpt>
      <trkpt lat="56.84495950576" lon="14.76441677798">
        <ele>167.6</ele>
        <time>2020-03-29T16:48:38Z</time>
      </trkpt>
      <trkpt lat="56.845067380813" lon="14.764496908944">
        <ele>167.6</ele>
        <time>2020-03-29T16:48:40Z</time>
      </trkpt>
      <trkpt lat="56.845514638997" lon="14.764704696245">
        <ele>167.4</ele>
        <time>2020-03-29T16:48:47Z</time>
      </trkpt>
      <trkpt lat="56.845989305994" lon="14.764696230526">
        <ele>167.2</ele>
        <time>2020-03-29T16:48:54Z</time>
      </trkpt>
      <trkpt lat="56.84611117882" lon="14.764621380159">
        <ele>167.4</ele>
        <time>2020-03-29T16:48:56Z</time>
      </trkpt>
      <trkpt lat="56.846275966974" lon="14.764449215933">
        <ele>167.4</ele>
        <time>2020-03-29T16:48:59Z</time>
      </trkpt>
      <trkpt lat="56.846365318028" lon="14.764291300937">
        <ele>167.4</ele>
        <time>2020-03-29T16:49:01Z</time>
      </trkpt>
      <trkpt lat="56.84641795636" lon="14.764084268007">
        <ele>167.2</ele>
        <time>2020-03-29T16:49:03Z</time>
      </trkpt>
      <trkpt lat="56.84643220559" lon="14.76386021982">
        <ele>167.2</ele>
        <time>2020-03-29T16:49:05Z</time>
      </trkpt>
      <trkpt lat="56.84642382369" lon="14.76364648137">
        <ele>167</ele>
        <time>2020-03-29T16:49:07Z</time>
      </trkpt>
      <trkpt lat="56.846474366547" lon="14.763487560546">
        <ele>167</ele>
        <time>2020-03-29T16:49:09Z</time>
      </trkpt>
      <trkpt lat="56.846565896895" lon="14.763466019063">
        <ele>167.2</ele>
        <time>2020-03-29T16:49:11Z</time>
      </trkpt>
      <trkpt lat="56.846918104333" lon="14.763517819205">
        <ele>166.8</ele>
        <time>2020-03-29T16:49:17Z</time>
      </trkpt>
      <trkpt lat="56.847380701394" lon="14.76376382797">
        <ele>167.2</ele>
        <time>2020-03-29T16:49:25Z</time>
      </trkpt>
      <trkpt lat="56.847480194547" lon="14.763766677816">
        <ele>167.2</ele>
        <time>2020-03-29T16:49:27Z</time>
      </trkpt>
      <trkpt lat="56.847585219754" lon="14.763661233514">
        <ele>167.2</ele>
        <time>2020-03-29T16:49:29Z</time>
      </trkpt>
      <trkpt lat="56.847652358773" lon="14.763475742067">
        <ele>167.2</ele>
        <time>2020-03-29T16:49:31Z</time>
      </trkpt>
      <trkpt lat="56.847705248562" lon="14.763183632852">
        <ele>167.4</ele>
        <time>2020-03-29T16:49:34Z</time>
      </trkpt>
      <trkpt lat="56.847735507221" lon="14.762865958842">
        <ele>168</ele>
        <time>2020-03-29T16:49:37Z</time>
      </trkpt>
      <trkpt lat="56.847800886041" lon="14.762747354957">
        <ele>168.2</ele>
        <time>2020-03-29T16:49:39Z</time>
      </trkpt>
      <trkpt lat="56.847937259554" lon="14.762691950598">
        <ele>168.8</ele>
        <time>2020-03-29T16:49:42Z</time>
      </trkpt>
      <trkpt lat="56.847977911769" lon="14.762651801297">
        <ele>169.2</ele>
        <time>2020-03-29T16:49:43Z</time>
      </trkpt>
      <trkpt lat="56.848011187912" lon="14.762599749698">
        <ele>169.6</ele>
        <time>2020-03-29T16:49:44Z</time>
      </trkpt>
      <trkpt lat="56.848044715512" lon="14.762457425036">
        <ele>170</ele>
        <time>2020-03-29T16:49:46Z</time>
      </trkpt>
      <trkpt lat="56.848086960288" lon="14.762287523923">
        <ele>170.2</ele>
        <time>2020-03-29T16:49:48Z</time>
      </trkpt>
      <trkpt lat="56.848266835862" lon="14.76223999855">
        <ele>170</ele>
        <time>2020-03-29T16:49:51Z</time>
      </trkpt>
      <trkpt lat="56.848383092815" lon="14.762271514494">
        <ele>169.8</ele>
        <time>2020-03-29T16:49:53Z</time>
      </trkpt>
      <trkpt lat="56.848493566257" lon="14.762267155906">
        <ele>169.6</ele>
        <time>2020-03-29T16:49:55Z</time>
      </trkpt>
      <trkpt lat="56.849069067511" lon="14.762029780498">
        <ele>170</ele>
        <time>2020-03-29T16:50:05Z</time>
      </trkpt>
      <trkpt lat="56.849645574593" lon="14.761877146099">
        <ele>169.4</ele>
        <time>2020-03-29T16:50:15Z</time>
      </trkpt>
      <trkpt lat="56.849715982553" lon="14.761882594334">
        <ele>169.2</ele>
        <time>2020-03-29T16:50:16Z</time>
      </trkpt>
      <trkpt lat="56.850310678358" lon="14.761793159461">
        <ele>168.6</ele>
        <time>2020-03-29T16:50:25Z</time>
      </trkpt>
      <trkpt lat="56.850373123513" lon="14.761794835841">
        <ele>168.6</ele>
        <time>2020-03-29T16:50:26Z</time>
      </trkpt>
      <trkpt lat="56.850704879115" lon="14.7619172954">
        <ele>168</ele>
        <time>2020-03-29T16:50:31Z</time>
      </trkpt>
      <trkpt lat="56.851223383449" lon="14.761973621768">
        <ele>167</ele>
        <time>2020-03-29T16:50:39Z</time>
      </trkpt>
      <trkpt lat="56.851812714838" lon="14.762111504023">
        <ele>166.2</ele>
        <time>2020-03-29T16:50:48Z</time>
      </trkpt>
      <trkpt lat="56.852361058736" lon="14.762172608074">
        <ele>166.8</ele>
        <time>2020-03-29T16:50:57Z</time>
      </trkpt>
      <trkpt lat="56.85254261069" lon="14.762199011059">
        <ele>166.6</ele>
        <time>2020-03-29T16:51:00Z</time>
      </trkpt>
      <trkpt lat="56.852762132651" lon="14.762137907008">
        <ele>166.4</ele>
        <time>2020-03-29T16:51:04Z</time>
      </trkpt>
      <trkpt lat="56.85287621031" lon="14.762141427406">
        <ele>166.2</ele>
        <time>2020-03-29T16:51:06Z</time>
      </trkpt>
      <trkpt lat="56.852919460914" lon="14.762185935295">
        <ele>166</ele>
        <time>2020-03-29T16:51:07Z</time>
      </trkpt>
      <trkpt lat="56.852941337673" lon="14.76227604072">
        <ele>165.6</ele>
        <time>2020-03-29T16:51:08Z</time>
      </trkpt>
      <trkpt lat="56.852930189746" lon="14.762476200492">
        <ele>165.2</ele>
        <time>2020-03-29T16:51:10Z</time>
      </trkpt>
      <trkpt lat="56.852882999649" lon="14.762766633327">
        <ele>165</ele>
        <time>2020-03-29T16:51:13Z</time>
      </trkpt>
      <trkpt lat="56.852840838692" lon="14.763572553012">
        <ele>166.2</ele>
        <time>2020-03-29T16:51:21Z</time>
      </trkpt>
      <trkpt lat="56.852830864231" lon="14.763752680043">
        <ele>166.4</ele>
        <time>2020-03-29T16:51:23Z</time>
      </trkpt>
      <trkpt lat="56.852799432106" lon="14.764004556138">
        <ele>167.4</ele>
        <time>2020-03-29T16:51:27Z</time>
      </trkpt>
      <trkpt lat="56.852800270296" lon="14.764046884733">
        <ele>168.8</ele>
        <time>2020-03-29T16:51:29Z</time>
      </trkpt>
      <trkpt lat="56.852796917536" lon="14.764061217782">
        <ele>170.6</ele>
        <time>2020-03-29T16:51:31Z</time>
      </trkpt>
      <trkpt lat="56.852791804577" lon="14.76409239845">
        <ele>171.8</ele>
        <time>2020-03-29T16:51:33Z</time>
      </trkpt>
      <trkpt lat="56.852784093229" lon="14.764214103638">
        <ele>172.4</ele>
        <time>2020-03-29T16:51:38Z</time>
      </trkpt>
      <trkpt lat="56.852739501521" lon="14.764230364524">
        <ele>172.8</ele>
        <time>2020-03-29T16:51:41Z</time>
      </trkpt>
      <trkpt lat="56.852527439451" lon="14.764491209252">
        <ele>172.4</ele>
        <time>2020-03-29T16:51:48Z</time>
      </trkpt>
      <trkpt lat="56.85234982699" lon="14.76465901489">
        <ele>172.6</ele>
        <time>2020-03-29T16:51:52Z</time>
      </trkpt>
      <trkpt lat="56.85226936075" lon="14.764746270469">
        <ele>172.8</ele>
        <time>2020-03-29T16:51:54Z</time>
      </trkpt>
      <trkpt lat="56.852182691904" lon="14.764861689232">
        <ele>172.8</ele>
        <time>2020-03-29T16:51:56Z</time>
      </trkpt>
      <trkpt lat="56.851766279112" lon="14.76555839276">
        <ele>172.2</ele>
        <time>2020-03-29T16:52:09Z</time>
      </trkpt>
      <trkpt lat="56.851741887783" lon="14.765623855399">
        <ele>172.2</ele>
        <time>2020-03-29T16:52:10Z</time>
      </trkpt>
      <trkpt lat="56.851590678307" lon="14.766129870702">
        <ele>171.8</ele>
        <time>2020-03-29T16:52:16Z</time>
      </trkpt>
      <trkpt lat="56.8515694721" lon="14.7662088282">
        <ele>171.6</ele>
        <time>2020-03-29T16:52:17Z</time>
      </trkpt>
      <trkpt lat="56.85147978577" lon="14.766415106759">
        <ele>171.8</ele>
        <time>2020-03-29T16:52:20Z</time>
      </trkpt>
      <trkpt lat="56.851413401122" lon="14.766550893539">
        <ele>171.2</ele>
        <time>2020-03-29T16:52:22Z</time>
      </trkpt>
      <trkpt lat="56.851315249073" lon="14.766687686147">
        <ele>170.6</ele>
        <time>2020-03-29T16:52:25Z</time>
      </trkpt>
      <trkpt lat="56.851018948908" lon="14.767217841322">
        <ele>170.4</ele>
        <time>2020-03-29T16:52:35Z</time>
      </trkpt>
      <trkpt lat="56.850815687833" lon="14.767471393797">
        <ele>169.4</ele>
        <time>2020-03-29T16:52:40Z</time>
      </trkpt>
      <trkpt lat="56.850721307639" lon="14.767582537791">
        <ele>168.6</ele>
        <time>2020-03-29T16:52:42Z</time>
      </trkpt>
      <trkpt lat="56.850672524981" lon="14.767645737317">
        <ele>168.2</ele>
        <time>2020-03-29T16:52:43Z</time>
      </trkpt>
      <trkpt lat="56.850216130526" lon="14.768196511966">
        <ele>167.6</ele>
        <time>2020-03-29T16:52:54Z</time>
      </trkpt>
      <trkpt lat="56.850090988759" lon="14.768314612937">
        <ele>167.2</ele>
        <time>2020-03-29T16:52:57Z</time>
      </trkpt>
      <trkpt lat="56.849770883998" lon="14.768578056054">
        <ele>167.6</ele>
        <time>2020-03-29T16:53:04Z</time>
      </trkpt>
      <trkpt lat="56.849500316266" lon="14.7687904534">
        <ele>166.4</ele>
        <time>2020-03-29T16:53:11Z</time>
      </trkpt>
      <trkpt lat="56.849446253011" lon="14.768956331201">
        <ele>165.8</ele>
        <time>2020-03-29T16:53:13Z</time>
      </trkpt>
      <trkpt lat="56.849453545264" lon="14.768976447761">
        <ele>165.2</ele>
        <time>2020-03-29T16:53:14Z</time>
      </trkpt>
      <trkpt lat="56.849461088974" lon="14.769013663397">
        <ele>164.6</ele>
        <time>2020-03-29T16:53:15Z</time>
      </trkpt>
      <trkpt lat="56.849505680682" lon="14.76905615963">
        <ele>164</ele>
        <time>2020-03-29T16:53:18Z</time>
      </trkpt>
      <trkpt lat="56.849998033488" lon="14.768552239802">
        <ele>164.2</ele>
        <time>2020-03-29T16:53:33Z</time>
      </trkpt>
      <trkpt lat="56.850288885418" lon="14.768290556884">
        <ele>164.2</ele>
        <time>2020-03-29T16:53:40Z</time>
      </trkpt>
      <trkpt lat="56.850489799561" lon="14.768041865911">
        <ele>164</ele>
        <time>2020-03-29T16:53:45Z</time>
      </trkpt>
      <trkpt lat="56.850940913419" lon="14.767510369632">
        <ele>164.8</ele>
        <time>2020-03-29T16:53:58Z</time>
      </trkpt>
      <trkpt lat="56.851275435048" lon="14.766745688895">
        <ele>164.2</ele>
        <time>2020-03-29T16:54:13Z</time>
      </trkpt>
      <trkpt lat="56.851382388092" lon="14.766550055349">
        <ele>163.6</ele>
        <time>2020-03-29T16:54:16Z</time>
      </trkpt>
      <trkpt lat="56.851550277549" lon="14.766366994653">
        <ele>164</ele>
        <time>2020-03-29T16:54:21Z</time>
      </trkpt>
      <trkpt lat="56.85190642448" lon="14.765652772954">
        <ele>164.8</ele>
        <time>2020-03-29T16:54:34Z</time>
      </trkpt>
      <trkpt lat="56.8521729689" lon="14.765319257153">
        <ele>165.8</ele>
        <time>2020-03-29T16:54:40Z</time>
      </trkpt>
      <trkpt lat="56.852216890056" lon="14.765293776177">
        <ele>166</ele>
        <time>2020-03-29T16:54:41Z</time>
      </trkpt>
      <trkpt lat="56.852395592164" lon="14.765264690984">
        <ele>166</ele>
        <time>2020-03-29T16:54:45Z</time>
      </trkpt>
      <trkpt lat="56.852717289486" lon="14.76546786824">
        <ele>166.4</ele>
        <time>2020-03-29T16:54:52Z</time>
      </trkpt>
      <trkpt lat="56.852771268922" lon="14.765612456015">
        <ele>166.2</ele>
        <time>2020-03-29T16:54:54Z</time>
      </trkpt>
      <trkpt lat="56.852944187519" lon="14.765826948836">
        <ele>165.6</ele>
        <time>2020-03-29T16:54:58Z</time>
      </trkpt>
      <trkpt lat="56.853148286784" lon="14.766011182998">
        <ele>165.2</ele>
        <time>2020-03-29T16:55:02Z</time>
      </trkpt>
      <trkpt lat="56.853260352787" lon="14.766055858525">
        <ele>165</ele>
        <time>2020-03-29T16:55:04Z</time>
      </trkpt>
      <trkpt lat="56.853314835137" lon="14.766060217113">
        <ele>165</ele>
        <time>2020-03-29T16:55:05Z</time>
      </trkpt>
      <trkpt lat="56.853434612488" lon="14.766060803846">
        <ele>165</ele>
        <time>2020-03-29T16:55:07Z</time>
      </trkpt>
      <trkpt lat="56.853642735065" lon="14.766238332488">
        <ele>165</ele>
        <time>2020-03-29T16:55:12Z</time>
      </trkpt>
      <trkpt lat="56.853844822674" lon="14.76644435959">
        <ele>165.4</ele>
        <time>2020-03-29T16:55:16Z</time>
      </trkpt>
      <trkpt lat="56.854108601067" lon="14.766677460229">
        <ele>166</ele>
        <time>2020-03-29T16:55:22Z</time>
      </trkpt>
      <trkpt lat="56.854209854419" lon="14.766740073022">
        <ele>166</ele>
        <time>2020-03-29T16:55:24Z</time>
      </trkpt>
      <trkpt lat="56.854421329756" lon="14.76687770382">
        <ele>166.2</ele>
        <time>2020-03-29T16:55:28Z</time>
      </trkpt>
      <trkpt lat="56.854751325159" lon="14.767003683777">
        <ele>166.4</ele>
        <time>2020-03-29T16:55:34Z</time>
      </trkpt>
      <trkpt lat="56.855043602012" lon="14.767042659612">
        <ele>166.2</ele>
        <time>2020-03-29T16:55:39Z</time>
      </trkpt>
      <trkpt lat="56.855629580641" lon="14.767249105809">
        <ele>166</ele>
        <time>2020-03-29T16:55:49Z</time>
      </trkpt>
      <trkpt lat="56.855718764057" lon="14.767250446913">
        <ele>166.2</ele>
        <time>2020-03-29T16:55:51Z</time>
      </trkpt>
      <trkpt lat="56.855848096774" lon="14.767246675058">
        <ele>166.2</ele>
        <time>2020-03-29T16:55:54Z</time>
      </trkpt>
      <trkpt lat="56.855930239394" lon="14.767197976219">
        <ele>166</ele>
        <time>2020-03-29T16:55:56Z</time>
      </trkpt>
      <trkpt lat="56.856190497389" lon="14.767005192519">
        <ele>164.8</ele>
        <time>2020-03-29T16:56:01Z</time>
      </trkpt>
      <trkpt lat="56.856303233944" lon="14.76686932192">
        <ele>164.2</ele>
        <time>2020-03-29T16:56:03Z</time>
      </trkpt>
      <trkpt lat="56.856412198644" lon="14.76672431505">
        <ele>164</ele>
        <time>2020-03-29T16:56:05Z</time>
      </trkpt>
      <trkpt lat="56.856593499141" lon="14.766583247673">
        <ele>164</ele>
        <time>2020-03-29T16:56:08Z</time>
      </trkpt>
      <trkpt lat="56.856890218401" lon="14.76647788719">
        <ele>164.2</ele>
        <time>2020-03-29T16:56:12Z</time>
      </trkpt>
      <trkpt lat="56.857038913307" lon="14.766454669327">
        <ele>164.4</ele>
        <time>2020-03-29T16:56:14Z</time>
      </trkpt>
      <trkpt lat="56.857318282034" lon="14.766392056534">
        <ele>164.4</ele>
        <time>2020-03-29T16:56:18Z</time>
      </trkpt>
      <trkpt lat="56.857721199967" lon="14.766647704484">
        <ele>164.4</ele>
        <time>2020-03-29T16:56:25Z</time>
      </trkpt>
      <trkpt lat="56.857805438062" lon="14.766715262598">
        <ele>164.4</ele>
        <time>2020-03-29T16:56:27Z</time>
      </trkpt>
      <trkpt lat="56.858100145666" lon="14.766513845541">
        <ele>165.2</ele>
        <time>2020-03-29T16:56:34Z</time>
      </trkpt>
      <trkpt lat="56.858270214417" lon="14.766372442888">
        <ele>165.4</ele>
        <time>2020-03-29T16:56:38Z</time>
      </trkpt>
      <trkpt lat="56.858401223514" lon="14.766428601618">
        <ele>165.2</ele>
        <time>2020-03-29T16:56:40Z</time>
      </trkpt>
      <trkpt lat="56.8589120165" lon="14.766912656343">
        <ele>165.2</ele>
        <time>2020-03-29T16:56:47Z</time>
      </trkpt>
      <trkpt lat="56.859330608586" lon="14.76765722052">
        <ele>164.8</ele>
        <time>2020-03-29T16:56:56Z</time>
      </trkpt>
      <trkpt lat="56.859598326472" lon="14.768259543854">
        <ele>164.4</ele>
        <time>2020-03-29T16:57:03Z</time>
      </trkpt>
      <trkpt lat="56.859632440805" lon="14.768442269274">
        <ele>164.2</ele>
        <time>2020-03-29T16:57:05Z</time>
      </trkpt>
      <trkpt lat="56.85962531619" lon="14.768688278039">
        <ele>164.2</ele>
        <time>2020-03-29T16:57:07Z</time>
      </trkpt>
      <trkpt lat="56.859610396408" lon="14.768885671784">
        <ele>164.2</ele>
        <time>2020-03-29T16:57:09Z</time>
      </trkpt>
      <trkpt lat="56.859620789964" lon="14.769092117981">
        <ele>164.2</ele>
        <time>2020-03-29T16:57:11Z</time>
      </trkpt>
      <trkpt lat="56.859664962577" lon="14.7696789348">
        <ele>164</ele>
        <time>2020-03-29T16:57:16Z</time>
      </trkpt>
      <trkpt lat="56.859671668097" lon="14.76988177678">
        <ele>164</ele>
        <time>2020-03-29T16:57:18Z</time>
      </trkpt>
      <trkpt lat="56.859710141018" lon="14.77003013641">
        <ele>164.2</ele>
        <time>2020-03-29T16:57:20Z</time>
      </trkpt>
      <trkpt lat="56.85981809989" lon="14.770280252306">
        <ele>164.4</ele>
        <time>2020-03-29T16:57:23Z</time>
      </trkpt>
      <trkpt lat="56.860074334573" lon="14.77068308642">
        <ele>166</ele>
        <time>2020-03-29T16:57:31Z</time>
      </trkpt>
      <trkpt lat="56.860089841088" lon="14.771067061259">
        <ele>167.2</ele>
        <time>2020-03-29T16:57:37Z</time>
      </trkpt>
      <trkpt lat="56.860058576601" lon="14.771252887982">
        <ele>167.2</ele>
        <time>2020-03-29T16:57:39Z</time>
      </trkpt>
      <trkpt lat="56.860057570773" lon="14.771707941333">
        <ele>168.2</ele>
        <time>2020-03-29T16:57:44Z</time>
      </trkpt>
      <trkpt lat="56.860087829432" lon="14.771994602313">
        <ele>168.6</ele>
        <time>2020-03-29T16:57:47Z</time>
      </trkpt>
      <trkpt lat="56.860114232417" lon="14.772298194731">
        <ele>169.2</ele>
        <time>2020-03-29T16:57:50Z</time>
      </trkpt>
      <trkpt lat="56.860132337321" lon="14.772583682245">
        <ele>169.8</ele>
        <time>2020-03-29T16:57:53Z</time>
      </trkpt>
      <trkpt lat="56.860163601808" lon="14.772762551991">
        <ele>169.8</ele>
        <time>2020-03-29T16:57:55Z</time>
      </trkpt>
      <trkpt lat="56.860205846584" lon="14.772945528868">
        <ele>169.8</ele>
        <time>2020-03-29T16:57:57Z</time>
      </trkpt>
      <trkpt lat="56.860256557079" lon="14.773126661727">
        <ele>169.6</ele>
        <time>2020-03-29T16:57:59Z</time>
      </trkpt>
      <trkpt lat="56.860392343859" lon="14.773550282953">
        <ele>168.6</ele>
        <time>2020-03-29T16:58:03Z</time>
      </trkpt>
      <trkpt lat="56.860459985792" lon="14.77365782273">
        <ele>168.6</ele>
        <time>2020-03-29T16:58:05Z</time>
      </trkpt>
      <trkpt lat="56.860584540826" lon="14.773810457129">
        <ele>168.6</ele>
        <time>2020-03-29T16:58:09Z</time>
      </trkpt>
      <trkpt lat="56.860712616258" lon="14.773798303374">
        <ele>168.2</ele>
        <time>2020-03-29T16:58:12Z</time>
      </trkpt>
      <trkpt lat="56.860759135803" lon="14.773805008894">
        <ele>168</ele>
        <time>2020-03-29T16:58:13Z</time>
      </trkpt>
      <trkpt lat="56.860895676954" lon="14.77378355123">
        <ele>168</ele>
        <time>2020-03-29T16:58:15Z</time>
      </trkpt>
      <trkpt lat="56.861007994414" lon="14.773840715788">
        <ele>168</ele>
        <time>2020-03-29T16:58:17Z</time>
      </trkpt>
      <trkpt lat="56.861113690173" lon="14.773971724885">
        <ele>168.2</ele>
        <time>2020-03-29T16:58:19Z</time>
      </trkpt>
      <trkpt lat="56.861198766458" lon="14.774136010125">
        <ele>168.4</ele>
        <time>2020-03-29T16:58:21Z</time>
      </trkpt>
      <trkpt lat="56.861356346178" lon="14.774415881766">
        <ele>168.6</ele>
        <time>2020-03-29T16:58:24Z</time>
      </trkpt>
      <trkpt lat="56.861593134853" lon="14.774967829881">
        <ele>169.2</ele>
        <time>2020-03-29T16:58:30Z</time>
      </trkpt>
      <trkpt lat="56.861626327177" lon="14.775032119054">
        <ele>169.2</ele>
        <time>2020-03-29T16:58:31Z</time>
      </trkpt>
      <trkpt lat="56.861729424547" lon="14.775235212491">
        <ele>169.8</ele>
        <time>2020-03-29T16:58:34Z</time>
      </trkpt>
      <trkpt lat="56.86183897598" lon="14.775388265985">
        <ele>170.2</ele>
        <time>2020-03-29T16:58:37Z</time>
      </trkpt>
      <trkpt lat="56.861919693677" lon="14.775513491571">
        <ele>170.6</ele>
        <time>2020-03-29T16:58:39Z</time>
      </trkpt>
      <trkpt lat="56.861980881547" lon="14.775686829263">
        <ele>171</ele>
        <time>2020-03-29T16:58:41Z</time>
      </trkpt>
      <trkpt lat="56.862014492966" lon="14.775921941558">
        <ele>171</ele>
        <time>2020-03-29T16:58:43Z</time>
      </trkpt>
      <trkpt lat="56.862073920637" lon="14.776305245845">
        <ele>170.4</ele>
        <time>2020-03-29T16:58:46Z</time>
      </trkpt>
      <trkpt lat="56.86230081867" lon="14.777020221915">
        <ele>169.4</ele>
        <time>2020-03-29T16:58:52Z</time>
      </trkpt>
      <trkpt lat="56.862389499172" lon="14.777212335063">
        <ele>169.2</ele>
        <time>2020-03-29T16:58:54Z</time>
      </trkpt>
      <trkpt lat="56.862609356409" lon="14.777649786424">
        <ele>168.6</ele>
        <time>2020-03-29T16:58:59Z</time>
      </trkpt>
      <trkpt lat="56.862696611988" lon="14.777925802391">
        <ele>168.4</ele>
        <time>2020-03-29T16:59:02Z</time>
      </trkpt>
      <trkpt lat="56.862759979152" lon="14.778124118145">
        <ele>168.4</ele>
        <time>2020-03-29T16:59:04Z</time>
      </trkpt>
      <trkpt lat="56.862875230277" lon="14.778440618689">
        <ele>168.6</ele>
        <time>2020-03-29T16:59:08Z</time>
      </trkpt>
      <trkpt lat="56.86296550334" lon="14.778735242474">
        <ele>168.8</ele>
        <time>2020-03-29T16:59:11Z</time>
      </trkpt>
      <trkpt lat="56.863104559061" lon="14.779035314494">
        <ele>168.2</ele>
        <time>2020-03-29T16:59:14Z</time>
      </trkpt>
      <trkpt lat="56.863277729115" lon="14.779184428495">
        <ele>167.6</ele>
        <time>2020-03-29T16:59:18Z</time>
      </trkpt>
      <trkpt lat="56.863600096989" lon="14.779502270143">
        <ele>168.2</ele>
        <time>2020-03-29T16:59:25Z</time>
      </trkpt>
      <trkpt lat="56.863866725228" lon="14.779871492838">
        <ele>167</ele>
        <time>2020-03-29T16:59:29Z</time>
      </trkpt>
      <trkpt lat="56.86397552229" lon="14.780047680376">
        <ele>166</ele>
        <time>2020-03-29T16:59:31Z</time>
      </trkpt>
      <trkpt lat="56.864030507554" lon="14.780081124157">
        <ele>165.6</ele>
        <time>2020-03-29T16:59:32Z</time>
      </trkpt>
      <trkpt lat="56.864108626862" lon="14.78007081442">
        <ele>164.6</ele>
        <time>2020-03-29T16:59:34Z</time>
      </trkpt>
      <trkpt lat="56.864226895471" lon="14.780120602906">
        <ele>164.2</ele>
        <time>2020-03-29T16:59:36Z</time>
      </trkpt>
      <trkpt lat="56.864333010325" lon="14.780259323351">
        <ele>164.6</ele>
        <time>2020-03-29T16:59:38Z</time>
      </trkpt>
      <trkpt lat="56.86451531665" lon="14.780630557702">
        <ele>165.6</ele>
        <time>2020-03-29T16:59:43Z</time>
      </trkpt>
      <trkpt lat="56.864546664956" lon="14.780706916811">
        <ele>165.8</ele>
        <time>2020-03-29T16:59:44Z</time>
      </trkpt>
      <trkpt lat="56.864748417289" lon="14.781067003235">
        <ele>166.8</ele>
        <time>2020-03-29T16:59:49Z</time>
      </trkpt>
      <trkpt lat="56.864807677322" lon="14.781168591863">
        <ele>167</ele>
        <time>2020-03-29T16:59:52Z</time>
      </trkpt>
      <trkpt lat="56.86484388713" lon="14.781286944291">
        <ele>166.8</ele>
        <time>2020-03-29T16:59:55Z</time>
      </trkpt>
      <trkpt lat="56.864910271778" lon="14.7815896147">
        <ele>166.4</ele>
        <time>2020-03-29T17:02:32Z</time>
      </trkpt>
      <trkpt lat="56.864937596772" lon="14.781714421191">
        <ele>166.4</ele>
        <time>2020-03-29T17:02:35Z</time>
      </trkpt>
      <trkpt lat="56.86526046756" lon="14.782539619246">
        <ele>166.2</ele>
        <time>2020-03-29T17:02:46Z</time>
      </trkpt>
      <trkpt lat="56.865418131099" lon="14.782939519695">
        <ele>166.6</ele>
        <time>2020-03-29T17:02:50Z</time>
      </trkpt>
      <trkpt lat="56.8656007727" lon="14.783414270511">
        <ele>166.4</ele>
        <time>2020-03-29T17:02:54Z</time>
      </trkpt>
      <trkpt lat="56.865721639698" lon="14.783799670273">
        <ele>165.8</ele>
        <time>2020-03-29T17:02:57Z</time>
      </trkpt>
      <trkpt lat="56.865833118968" lon="14.78408322995">
        <ele>165.4</ele>
        <time>2020-03-29T17:03:00Z</time>
      </trkpt>
      <trkpt lat="56.865859438134" lon="14.784228572096">
        <ele>165.2</ele>
        <time>2020-03-29T17:03:02Z</time>
      </trkpt>
      <trkpt lat="56.865846110913" lon="14.784377937554">
        <ele>165</ele>
        <time>2020-03-29T17:03:04Z</time>
      </trkpt>
      <trkpt lat="56.865692303048" lon="14.785339090027">
        <ele>165</ele>
        <time>2020-03-29T17:03:14Z</time>
      </trkpt>
      <trkpt lat="56.865658859267" lon="14.785371947075">
        <ele>165</ele>
        <time>2020-03-29T17:03:15Z</time>
      </trkpt>
      <trkpt lat="56.865544530151" lon="14.785768159488">
        <ele>165</ele>
        <time>2020-03-29T17:03:20Z</time>
      </trkpt>
      <trkpt lat="56.86553539388" lon="14.786070075526">
        <ele>164.8</ele>
        <time>2020-03-29T17:03:22Z</time>
      </trkpt>
      <trkpt lat="56.865483761376" lon="14.786292363514">
        <ele>164.6</ele>
        <time>2020-03-29T17:03:24Z</time>
      </trkpt>
      <trkpt lat="56.865306400372" lon="14.787214121057">
        <ele>165.8</ele>
        <time>2020-03-29T17:03:32Z</time>
      </trkpt>
      <trkpt lat="56.865235573317" lon="14.787690380615">
        <ele>166.8</ele>
        <time>2020-03-29T17:03:36Z</time>
      </trkpt>
      <trkpt lat="56.86511713707" lon="14.788172172227">
        <ele>168</ele>
        <time>2020-03-29T17:03:41Z</time>
      </trkpt>
      <trkpt lat="56.864934746926" lon="14.789135084899">
        <ele>169</ele>
        <time>2020-03-29T17:03:49Z</time>
      </trkpt>
      <trkpt lat="56.864905410276" lon="14.78924480397">
        <ele>169</ele>
        <time>2020-03-29T17:03:50Z</time>
      </trkpt>
      <trkpt lat="56.864759984311" lon="14.789759871725">
        <ele>169.4</ele>
        <time>2020-03-29T17:03:55Z</time>
      </trkpt>
      <trkpt lat="56.864696198052" lon="14.790057177718">
        <ele>169.8</ele>
        <time>2020-03-29T17:03:58Z</time>
      </trkpt>
      <trkpt lat="56.864666861402" lon="14.790158598708">
        <ele>170</ele>
        <time>2020-03-29T17:03:59Z</time>
      </trkpt>
      <trkpt lat="56.864649678507" lon="14.790260354974">
        <ele>170.2</ele>
        <time>2020-03-29T17:04:00Z</time>
      </trkpt>
      <trkpt lat="56.864628304662" lon="14.790538550235">
        <ele>170.4</ele>
        <time>2020-03-29T17:04:03Z</time>
      </trkpt>
      <trkpt lat="56.864636099829" lon="14.790718425809">
        <ele>170.4</ele>
        <time>2020-03-29T17:04:05Z</time>
      </trkpt>
      <trkpt lat="56.86466619085" lon="14.790940965254">
        <ele>170.2</ele>
        <time>2020-03-29T17:04:08Z</time>
      </trkpt>
      <trkpt lat="56.864966933422" lon="14.791811425569">
        <ele>169</ele>
        <time>2020-03-29T17:04:16Z</time>
      </trkpt>
      <trkpt lat="56.86507941852" lon="14.792139828411">
        <ele>168</ele>
        <time>2020-03-29T17:04:18Z</time>
      </trkpt>
      <trkpt lat="56.865178744035" lon="14.792356332888">
        <ele>167.4</ele>
        <time>2020-03-29T17:04:20Z</time>
      </trkpt>
      <trkpt lat="56.865323499448" lon="14.7925112304">
        <ele>167.4</ele>
        <time>2020-03-29T17:04:23Z</time>
      </trkpt>
      <trkpt lat="56.865620386346" lon="14.792680880056">
        <ele>169.2</ele>
        <time>2020-03-29T17:04:28Z</time>
      </trkpt>
      <trkpt lat="56.865821803403" lon="14.792788419833">
        <ele>170.4</ele>
        <time>2020-03-29T17:04:32Z</time>
      </trkpt>
      <trkpt lat="56.866096645904" lon="14.792948095028">
        <ele>171.4</ele>
        <time>2020-03-29T17:04:38Z</time>
      </trkpt>
      <trkpt lat="56.866579610982" lon="14.793391162262">
        <ele>172.4</ele>
        <time>2020-03-29T17:04:48Z</time>
      </trkpt>
      <trkpt lat="56.866619425007" lon="14.79344748863">
        <ele>172.4</ele>
        <time>2020-03-29T17:04:49Z</time>
      </trkpt>
      <trkpt lat="56.866702321998" lon="14.793565086687">
        <ele>172.4</ele>
        <time>2020-03-29T17:04:51Z</time>
      </trkpt>
      <trkpt lat="56.866855040216" lon="14.793787123218">
        <ele>171.8</ele>
        <time>2020-03-29T17:04:54Z</time>
      </trkpt>
      <trkpt lat="56.867011195013" lon="14.793978314357">
        <ele>171.4</ele>
        <time>2020-03-29T17:04:57Z</time>
      </trkpt>
      <trkpt lat="56.867067772838" lon="14.794049225231">
        <ele>171.4</ele>
        <time>2020-03-29T17:04:58Z</time>
      </trkpt>
      <trkpt lat="56.867409502901" lon="14.794574602723">
        <ele>170.4</ele>
        <time>2020-03-29T17:05:04Z</time>
      </trkpt>
      <trkpt lat="56.867580326023" lon="14.794819521841">
        <ele>169.4</ele>
        <time>2020-03-29T17:05:07Z</time>
      </trkpt>
      <trkpt lat="56.867614524175" lon="14.794865957567">
        <ele>169.2</ele>
        <time>2020-03-29T17:05:08Z</time>
      </trkpt>
      <trkpt lat="56.867663306833" lon="14.794930330559">
        <ele>169</ele>
        <time>2020-03-29T17:05:09Z</time>
      </trkpt>
      <trkpt lat="56.867769589325" lon="14.795012054084">
        <ele>168.8</ele>
        <time>2020-03-29T17:05:11Z</time>
      </trkpt>
      <trkpt lat="56.86792172081" lon="14.795074163963">
        <ele>168.4</ele>
        <time>2020-03-29T17:05:16Z</time>
      </trkpt>
      <trkpt lat="56.867930437986" lon="14.795023704925">
        <ele>168</ele>
        <time>2020-03-29T17:05:18Z</time>
      </trkpt>
      <trkpt lat="56.867966563975" lon="14.794916248967">
        <ele>167.8</ele>
        <time>2020-03-29T17:05:22Z</time>
      </trkpt>
      <trkpt lat="56.86805415483" lon="14.794924295591">
        <ele>167.8</ele>
        <time>2020-03-29T17:05:26Z</time>
      </trkpt>
      <trkpt lat="56.868107212257" lon="14.79483134032">
        <ele>167.6</ele>
        <time>2020-03-29T17:05:28Z</time>
      </trkpt>
      <trkpt lat="56.868253560231" lon="14.79424041637">
        <ele>167</ele>
        <time>2020-03-29T17:05:34Z</time>
      </trkpt>
      <trkpt lat="56.868338804154" lon="14.793911762071">
        <ele>166.8</ele>
        <time>2020-03-29T17:05:37Z</time>
      </trkpt>
      <trkpt lat="56.868489007802" lon="14.793488140845">
        <ele>166.4</ele>
        <time>2020-03-29T17:05:41Z</time>
      </trkpt>
      <trkpt lat="56.868584310005" lon="14.793217237837">
        <ele>166.4</ele>
        <time>2020-03-29T17:05:44Z</time>
      </trkpt>
      <trkpt lat="56.868919250729" lon="14.79230000652">
        <ele>166.6</ele>
        <time>2020-03-29T17:05:53Z</time>
      </trkpt>
      <trkpt lat="56.869210102659" lon="14.791365340851">
        <ele>166.6</ele>
        <time>2020-03-29T17:06:02Z</time>
      </trkpt>
      <trkpt lat="56.869435659588" lon="14.790400835618">
        <ele>166.4</ele>
        <time>2020-03-29T17:06:13Z</time>
      </trkpt>
      <trkpt lat="56.869568596522" lon="14.789822484518">
        <ele>166</ele>
        <time>2020-03-29T17:06:18Z</time>
      </trkpt>
      <trkpt lat="56.869693570651" lon="14.789178335503">
        <ele>165.6</ele>
        <time>2020-03-29T17:06:24Z</time>
      </trkpt>
      <trkpt lat="56.869717542885" lon="14.788991083857">
        <ele>165.6</ele>
        <time>2020-03-29T17:06:26Z</time>
      </trkpt>
      <trkpt lat="56.869829189793" lon="14.788910617617">
        <ele>165.6</ele>
        <time>2020-03-29T17:06:28Z</time>
      </trkpt>
      <trkpt lat="56.869975789224" lon="14.789000974499">
        <ele>165.8</ele>
        <time>2020-03-29T17:06:30Z</time>
      </trkpt>
      <trkpt lat="56.870478787043" lon="14.789478826618">
        <ele>166.2</ele>
        <time>2020-03-29T17:06:39Z</time>
      </trkpt>
      <trkpt lat="56.870610801968" lon="14.789604890394">
        <ele>167.4</ele>
        <time>2020-03-29T17:06:42Z</time>
      </trkpt>
      <trkpt lat="56.870729070577" lon="14.789729696885">
        <ele>168.4</ele>
        <time>2020-03-29T17:06:45Z</time>
      </trkpt>
      <trkpt lat="56.87087550237" lon="14.789902615482">
        <ele>169.6</ele>
        <time>2020-03-29T17:06:49Z</time>
      </trkpt>
      <trkpt lat="56.870994860626" lon="14.790043431402">
        <ele>170.6</ele>
        <time>2020-03-29T17:06:52Z</time>
      </trkpt>
      <trkpt lat="56.871308595143" lon="14.790420700721">
        <ele>172</ele>
        <time>2020-03-29T17:07:00Z</time>
      </trkpt>
      <trkpt lat="56.871412363065" lon="14.790556068406">
        <ele>173</ele>
        <time>2020-03-29T17:07:03Z</time>
      </trkpt>
      <trkpt lat="56.871697599122" lon="14.791087397047">
        <ele>173.6</ele>
        <time>2020-03-29T17:07:12Z</time>
      </trkpt>
      <trkpt lat="56.872152736292" lon="14.791765911852">
        <ele>172</ele>
        <time>2020-03-29T17:07:22Z</time>
      </trkpt>
      <trkpt lat="56.872206128995" lon="14.791835146346">
        <ele>171.8</ele>
        <time>2020-03-29T17:07:23Z</time>
      </trkpt>
      <trkpt lat="56.872693955575" lon="14.792316602682">
        <ele>172.2</ele>
        <time>2020-03-29T17:07:33Z</time>
      </trkpt>
      <trkpt lat="56.8727756791" lon="14.792426321753">
        <ele>172.8</ele>
        <time>2020-03-29T17:07:35Z</time>
      </trkpt>
      <trkpt lat="56.872891936053" lon="14.792610555915">
        <ele>173.2</ele>
        <time>2020-03-29T17:07:38Z</time>
      </trkpt>
      <trkpt lat="56.872981622383" lon="14.792700745159">
        <ele>173.4</ele>
        <time>2020-03-29T17:07:40Z</time>
      </trkpt>
      <trkpt lat="56.873166778554" lon="14.792808620212">
        <ele>173.8</ele>
        <time>2020-03-29T17:07:44Z</time>
      </trkpt>
      <trkpt lat="56.87332804631" lon="14.79270736686">
        <ele>173.8</ele>
        <time>2020-03-29T17:07:50Z</time>
      </trkpt>
      <trkpt lat="56.873327711034" lon="14.792551379701">
        <ele>173.2</ele>
        <time>2020-03-29T17:07:55Z</time>
      </trkpt>
    </trkseg>
  </trk>
</gpx>